<?xml version="1.0" encoding="UTF-8" standalone="no" ?>
<gpx xmlns="http://www.topografix.com/GPX/1/1" xmlns:xsi="http://www.w3.org/2001/XMLSchema-instance" xsi:schemaLocation="http://www.topografix.com/GPX/1/1 http://www.topografix.com/GPX/1/1/gpx.xsd" version="1.1" creator="VisuGPX - https://www.visugpx.com">
  <metadata>
    <name>LAMOURA-2011-3</name>
    <desc><![CDATA[rando retraite sportive VVL- les Arobiers]]></desc>
  </metadata>
  <wpt lat="46.41246" lon="5.99098">
    <ele>1192</ele>
  </wpt>
  <wpt lat="46.41241" lon="5.99084">
    <ele>1196</ele>
  </wpt>
  <trk>
    <name><![CDATA[LAMOURA-2011-3_1]]></name>
    <trkseg>
      <trkpt lat="46.41246" lon="5.99098">
        <ele>1192</ele>
        <time>2011-02-02T12:49:06Z</time>
      </trkpt>
      <trkpt lat="46.41243" lon="5.99086">
        <ele>1200</ele>
        <time>2011-02-02T12:50:02Z</time>
      </trkpt>
      <trkpt lat="46.4124" lon="5.99098">
        <ele>1200</ele>
        <time>2011-02-02T12:55:28Z</time>
      </trkpt>
      <trkpt lat="46.41233" lon="5.99089">
        <ele>1180</ele>
        <time>2011-02-02T13:00:36Z</time>
      </trkpt>
      <trkpt lat="46.41242" lon="5.99093">
        <ele>1190</ele>
        <time>2011-02-02T13:03:56Z</time>
      </trkpt>
      <trkpt lat="46.41245" lon="5.99105">
        <ele>1195</ele>
        <time>2011-02-02T13:04:07Z</time>
      </trkpt>
      <trkpt lat="46.41254" lon="5.9911">
        <ele>1188</ele>
        <time>2011-02-02T13:04:17Z</time>
      </trkpt>
      <trkpt lat="46.41258" lon="5.99122">
        <ele>1207</ele>
        <time>2011-02-02T13:04:35Z</time>
      </trkpt>
      <trkpt lat="46.41268" lon="5.99125">
        <ele>1207</ele>
        <time>2011-02-02T13:04:44Z</time>
      </trkpt>
      <trkpt lat="46.41276" lon="5.99132">
        <ele>1207</ele>
        <time>2011-02-02T13:04:50Z</time>
      </trkpt>
      <trkpt lat="46.41285" lon="5.9914">
        <ele>1200</ele>
        <time>2011-02-02T13:04:56Z</time>
      </trkpt>
      <trkpt lat="46.41293" lon="5.99148">
        <ele>1194</ele>
        <time>2011-02-02T13:05:02Z</time>
      </trkpt>
      <trkpt lat="46.413" lon="5.99157">
        <ele>1194</ele>
        <time>2011-02-02T13:05:11Z</time>
      </trkpt>
      <trkpt lat="46.41308" lon="5.99164">
        <ele>1201</ele>
        <time>2011-02-02T13:05:21Z</time>
      </trkpt>
      <trkpt lat="46.41314" lon="5.99174">
        <ele>1208</ele>
        <time>2011-02-02T13:05:32Z</time>
      </trkpt>
      <trkpt lat="46.41319" lon="5.99187">
        <ele>1203</ele>
        <time>2011-02-02T13:05:39Z</time>
      </trkpt>
      <trkpt lat="46.41323" lon="5.99201">
        <ele>1197</ele>
        <time>2011-02-02T13:05:47Z</time>
      </trkpt>
      <trkpt lat="46.41327" lon="5.99214">
        <ele>1191</ele>
        <time>2011-02-02T13:05:54Z</time>
      </trkpt>
      <trkpt lat="46.41332" lon="5.99226">
        <ele>1191</ele>
        <time>2011-02-02T13:06:01Z</time>
      </trkpt>
      <trkpt lat="46.41337" lon="5.99237">
        <ele>1191</ele>
        <time>2011-02-02T13:06:08Z</time>
      </trkpt>
      <trkpt lat="46.41342" lon="5.9925">
        <ele>1191</ele>
        <time>2011-02-02T13:06:15Z</time>
      </trkpt>
      <trkpt lat="46.41348" lon="5.99263">
        <ele>1191</ele>
        <time>2011-02-02T13:06:23Z</time>
      </trkpt>
      <trkpt lat="46.41353" lon="5.99274">
        <ele>1191</ele>
        <time>2011-02-02T13:06:32Z</time>
      </trkpt>
      <trkpt lat="46.41358" lon="5.99286">
        <ele>1191</ele>
        <time>2011-02-02T13:06:40Z</time>
      </trkpt>
      <trkpt lat="46.41364" lon="5.99297">
        <ele>1191</ele>
        <time>2011-02-02T13:06:49Z</time>
      </trkpt>
      <trkpt lat="46.41367" lon="5.99309">
        <ele>1191</ele>
        <time>2011-02-02T13:06:57Z</time>
      </trkpt>
      <trkpt lat="46.41369" lon="5.99323">
        <ele>1191</ele>
        <time>2011-02-02T13:07:07Z</time>
      </trkpt>
      <trkpt lat="46.41375" lon="5.99334">
        <ele>1191</ele>
        <time>2011-02-02T13:07:16Z</time>
      </trkpt>
      <trkpt lat="46.41381" lon="5.99345">
        <ele>1191</ele>
        <time>2011-02-02T13:07:24Z</time>
      </trkpt>
      <trkpt lat="46.41387" lon="5.99356">
        <ele>1191</ele>
        <time>2011-02-02T13:07:32Z</time>
      </trkpt>
      <trkpt lat="46.41393" lon="5.99369">
        <ele>1185</ele>
        <time>2011-02-02T13:07:41Z</time>
      </trkpt>
      <trkpt lat="46.414" lon="5.99379">
        <ele>1185</ele>
        <time>2011-02-02T13:07:50Z</time>
      </trkpt>
      <trkpt lat="46.41407" lon="5.99389">
        <ele>1185</ele>
        <time>2011-02-02T13:07:58Z</time>
      </trkpt>
      <trkpt lat="46.41415" lon="5.99398">
        <ele>1185</ele>
        <time>2011-02-02T13:08:07Z</time>
      </trkpt>
      <trkpt lat="46.4142" lon="5.99409">
        <ele>1185</ele>
        <time>2011-02-02T13:08:17Z</time>
      </trkpt>
      <trkpt lat="46.41428" lon="5.99418">
        <ele>1185</ele>
        <time>2011-02-02T13:08:27Z</time>
      </trkpt>
      <trkpt lat="46.41435" lon="5.99426">
        <ele>1190</ele>
        <time>2011-02-02T13:08:39Z</time>
      </trkpt>
      <trkpt lat="46.41443" lon="5.99434">
        <ele>1190</ele>
        <time>2011-02-02T13:08:50Z</time>
      </trkpt>
      <trkpt lat="46.41452" lon="5.99441">
        <ele>1190</ele>
        <time>2011-02-02T13:08:59Z</time>
      </trkpt>
      <trkpt lat="46.4146" lon="5.9945">
        <ele>1196</ele>
        <time>2011-02-02T13:09:09Z</time>
      </trkpt>
      <trkpt lat="46.41468" lon="5.99457">
        <ele>1196</ele>
        <time>2011-02-02T13:09:19Z</time>
      </trkpt>
      <trkpt lat="46.41476" lon="5.99464">
        <ele>1196</ele>
        <time>2011-02-02T13:09:29Z</time>
      </trkpt>
      <trkpt lat="46.41485" lon="5.99469">
        <ele>1196</ele>
        <time>2011-02-02T13:09:38Z</time>
      </trkpt>
      <trkpt lat="46.41494" lon="5.99476">
        <ele>1196</ele>
        <time>2011-02-02T13:09:49Z</time>
      </trkpt>
      <trkpt lat="46.41502" lon="5.99484">
        <ele>1196</ele>
        <time>2011-02-02T13:10:00Z</time>
      </trkpt>
      <trkpt lat="46.41511" lon="5.9949">
        <ele>1196</ele>
        <time>2011-02-02T13:10:10Z</time>
      </trkpt>
      <trkpt lat="46.41519" lon="5.99498">
        <ele>1196</ele>
        <time>2011-02-02T13:10:21Z</time>
      </trkpt>
      <trkpt lat="46.41527" lon="5.99506">
        <ele>1202</ele>
        <time>2011-02-02T13:10:34Z</time>
      </trkpt>
      <trkpt lat="46.41535" lon="5.99512">
        <ele>1202</ele>
        <time>2011-02-02T13:10:45Z</time>
      </trkpt>
      <trkpt lat="46.41544" lon="5.9952">
        <ele>1213</ele>
        <time>2011-02-02T13:10:56Z</time>
      </trkpt>
      <trkpt lat="46.41553" lon="5.99526">
        <ele>1213</ele>
        <time>2011-02-02T13:11:08Z</time>
      </trkpt>
      <trkpt lat="46.41562" lon="5.99527">
        <ele>1219</ele>
        <time>2011-02-02T13:11:24Z</time>
      </trkpt>
      <trkpt lat="46.41571" lon="5.99531">
        <ele>1211</ele>
        <time>2011-02-02T13:11:47Z</time>
      </trkpt>
      <trkpt lat="46.4158" lon="5.99533">
        <ele>1211</ele>
        <time>2011-02-02T13:11:57Z</time>
      </trkpt>
      <trkpt lat="46.41589" lon="5.99536">
        <ele>1205</ele>
        <time>2011-02-02T13:12:08Z</time>
      </trkpt>
      <trkpt lat="46.41598" lon="5.99542">
        <ele>1205</ele>
        <time>2011-02-02T13:12:19Z</time>
      </trkpt>
      <trkpt lat="46.41607" lon="5.99544">
        <ele>1221</ele>
        <time>2011-02-02T13:12:36Z</time>
      </trkpt>
      <trkpt lat="46.41616" lon="5.99552">
        <ele>1221</ele>
        <time>2011-02-02T13:12:45Z</time>
      </trkpt>
      <trkpt lat="46.41623" lon="5.9956">
        <ele>1221</ele>
        <time>2011-02-02T13:12:53Z</time>
      </trkpt>
      <trkpt lat="46.41629" lon="5.99571">
        <ele>1221</ele>
        <time>2011-02-02T13:13:01Z</time>
      </trkpt>
      <trkpt lat="46.41636" lon="5.99581">
        <ele>1221</ele>
        <time>2011-02-02T13:13:07Z</time>
      </trkpt>
      <trkpt lat="46.41642" lon="5.99591">
        <ele>1221</ele>
        <time>2011-02-02T13:13:17Z</time>
      </trkpt>
      <trkpt lat="46.4165" lon="5.996">
        <ele>1221</ele>
        <time>2011-02-02T13:13:27Z</time>
      </trkpt>
      <trkpt lat="46.41658" lon="5.99609">
        <ele>1210</ele>
        <time>2011-02-02T13:13:33Z</time>
      </trkpt>
      <trkpt lat="46.41663" lon="5.99621">
        <ele>1210</ele>
        <time>2011-02-02T13:13:42Z</time>
      </trkpt>
      <trkpt lat="46.4167" lon="5.99632">
        <ele>1210</ele>
        <time>2011-02-02T13:13:52Z</time>
      </trkpt>
      <trkpt lat="46.41679" lon="5.99636">
        <ele>1210</ele>
        <time>2011-02-02T13:14:05Z</time>
      </trkpt>
      <trkpt lat="46.41683" lon="5.99648">
        <ele>1210</ele>
        <time>2011-02-02T13:14:16Z</time>
      </trkpt>
      <trkpt lat="46.4169" lon="5.99657">
        <ele>1210</ele>
        <time>2011-02-02T13:14:26Z</time>
      </trkpt>
      <trkpt lat="46.41696" lon="5.99669">
        <ele>1210</ele>
        <time>2011-02-02T13:14:35Z</time>
      </trkpt>
      <trkpt lat="46.41704" lon="5.99678">
        <ele>1210</ele>
        <time>2011-02-02T13:14:45Z</time>
      </trkpt>
      <trkpt lat="46.41711" lon="5.99687">
        <ele>1210</ele>
        <time>2011-02-02T13:14:54Z</time>
      </trkpt>
      <trkpt lat="46.41719" lon="5.99696">
        <ele>1210</ele>
        <time>2011-02-02T13:15:03Z</time>
      </trkpt>
      <trkpt lat="46.41725" lon="5.99706">
        <ele>1210</ele>
        <time>2011-02-02T13:15:12Z</time>
      </trkpt>
      <trkpt lat="46.41732" lon="5.99715">
        <ele>1210</ele>
        <time>2011-02-02T13:15:19Z</time>
      </trkpt>
      <trkpt lat="46.41741" lon="5.99722">
        <ele>1210</ele>
        <time>2011-02-02T13:15:27Z</time>
      </trkpt>
      <trkpt lat="46.41749" lon="5.99731">
        <ele>1210</ele>
        <time>2011-02-02T13:15:40Z</time>
      </trkpt>
      <trkpt lat="46.41759" lon="5.99732">
        <ele>1225</ele>
        <time>2011-02-02T13:15:52Z</time>
      </trkpt>
      <trkpt lat="46.41768" lon="5.99736">
        <ele>1225</ele>
        <time>2011-02-02T13:16:05Z</time>
      </trkpt>
      <trkpt lat="46.41776" lon="5.99742">
        <ele>1232</ele>
        <time>2011-02-02T13:16:14Z</time>
      </trkpt>
      <trkpt lat="46.41783" lon="5.9975">
        <ele>1232</ele>
        <time>2011-02-02T13:16:24Z</time>
      </trkpt>
      <trkpt lat="46.41793" lon="5.99756">
        <ele>1232</ele>
        <time>2011-02-02T13:16:35Z</time>
      </trkpt>
      <trkpt lat="46.41801" lon="5.99764">
        <ele>1232</ele>
        <time>2011-02-02T13:16:41Z</time>
      </trkpt>
      <trkpt lat="46.41806" lon="5.99775">
        <ele>1224</ele>
        <time>2011-02-02T13:16:52Z</time>
      </trkpt>
      <trkpt lat="46.41813" lon="5.99785">
        <ele>1224</ele>
        <time>2011-02-02T13:17:03Z</time>
      </trkpt>
      <trkpt lat="46.4182" lon="5.99794">
        <ele>1224</ele>
        <time>2011-02-02T13:17:15Z</time>
      </trkpt>
      <trkpt lat="46.41826" lon="5.99805">
        <ele>1224</ele>
        <time>2011-02-02T13:17:25Z</time>
      </trkpt>
      <trkpt lat="46.41834" lon="5.99813">
        <ele>1224</ele>
        <time>2011-02-02T13:17:35Z</time>
      </trkpt>
      <trkpt lat="46.41839" lon="5.99824">
        <ele>1224</ele>
        <time>2011-02-02T13:17:43Z</time>
      </trkpt>
      <trkpt lat="46.41842" lon="5.99838">
        <ele>1224</ele>
        <time>2011-02-02T13:17:50Z</time>
      </trkpt>
      <trkpt lat="46.4185" lon="5.99846">
        <ele>1224</ele>
        <time>2011-02-02T13:18:01Z</time>
      </trkpt>
      <trkpt lat="46.41857" lon="5.99856">
        <ele>1224</ele>
        <time>2011-02-02T13:18:10Z</time>
      </trkpt>
      <trkpt lat="46.41862" lon="5.99868">
        <ele>1224</ele>
        <time>2011-02-02T13:18:18Z</time>
      </trkpt>
      <trkpt lat="46.41868" lon="5.99878">
        <ele>1224</ele>
        <time>2011-02-02T13:18:26Z</time>
      </trkpt>
      <trkpt lat="46.41873" lon="5.9989">
        <ele>1224</ele>
        <time>2011-02-02T13:18:35Z</time>
      </trkpt>
      <trkpt lat="46.4188" lon="5.99899">
        <ele>1233</ele>
        <time>2011-02-02T13:18:51Z</time>
      </trkpt>
      <trkpt lat="46.41886" lon="5.99909">
        <ele>1233</ele>
        <time>2011-02-02T13:18:58Z</time>
      </trkpt>
      <trkpt lat="46.41889" lon="5.99922">
        <ele>1233</ele>
        <time>2011-02-02T13:19:09Z</time>
      </trkpt>
      <trkpt lat="46.41893" lon="5.99934">
        <ele>1224</ele>
        <time>2011-02-02T13:19:19Z</time>
      </trkpt>
      <trkpt lat="46.41901" lon="5.99943">
        <ele>1224</ele>
        <time>2011-02-02T13:19:27Z</time>
      </trkpt>
      <trkpt lat="46.41909" lon="5.9995">
        <ele>1219</ele>
        <time>2011-02-02T13:19:36Z</time>
      </trkpt>
      <trkpt lat="46.41917" lon="5.99956">
        <ele>1219</ele>
        <time>2011-02-02T13:19:46Z</time>
      </trkpt>
      <trkpt lat="46.41924" lon="5.99965">
        <ele>1219</ele>
        <time>2011-02-02T13:19:56Z</time>
      </trkpt>
      <trkpt lat="46.41932" lon="5.99972">
        <ele>1229</ele>
        <time>2011-02-02T13:20:09Z</time>
      </trkpt>
      <trkpt lat="46.41937" lon="5.99985">
        <ele>1237</ele>
        <time>2011-02-02T13:20:21Z</time>
      </trkpt>
      <trkpt lat="46.41945" lon="5.99993">
        <ele>1237</ele>
        <time>2011-02-02T13:20:31Z</time>
      </trkpt>
      <trkpt lat="46.41953" lon="5.99999">
        <ele>1243</ele>
        <time>2011-02-02T13:20:42Z</time>
      </trkpt>
      <trkpt lat="46.41959" lon="6.0001">
        <ele>1243</ele>
        <time>2011-02-02T13:20:52Z</time>
      </trkpt>
      <trkpt lat="46.41965" lon="6.00019">
        <ele>1243</ele>
        <time>2011-02-02T13:20:59Z</time>
      </trkpt>
      <trkpt lat="46.41972" lon="6.00031">
        <ele>1243</ele>
        <time>2011-02-02T13:21:07Z</time>
      </trkpt>
      <trkpt lat="46.41977" lon="6.00043">
        <ele>1235</ele>
        <time>2011-02-02T13:21:16Z</time>
      </trkpt>
      <trkpt lat="46.41982" lon="6.00055">
        <ele>1226</ele>
        <time>2011-02-02T13:21:23Z</time>
      </trkpt>
      <trkpt lat="46.41988" lon="6.00067">
        <ele>1226</ele>
        <time>2011-02-02T13:21:31Z</time>
      </trkpt>
      <trkpt lat="46.41997" lon="6.00075">
        <ele>1226</ele>
        <time>2011-02-02T13:21:38Z</time>
      </trkpt>
      <trkpt lat="46.42001" lon="6.00087">
        <ele>1226</ele>
        <time>2011-02-02T13:21:46Z</time>
      </trkpt>
      <trkpt lat="46.42006" lon="6.00098">
        <ele>1226</ele>
        <time>2011-02-02T13:21:56Z</time>
      </trkpt>
      <trkpt lat="46.42013" lon="6.00109">
        <ele>1226</ele>
        <time>2011-02-02T13:22:05Z</time>
      </trkpt>
      <trkpt lat="46.42017" lon="6.0012">
        <ele>1226</ele>
        <time>2011-02-02T13:22:14Z</time>
      </trkpt>
      <trkpt lat="46.4202" lon="6.00135">
        <ele>1226</ele>
        <time>2011-02-02T13:22:25Z</time>
      </trkpt>
      <trkpt lat="46.42027" lon="6.00147">
        <ele>1211</ele>
        <time>2011-02-02T13:22:35Z</time>
      </trkpt>
      <trkpt lat="46.42034" lon="6.00157">
        <ele>1205</ele>
        <time>2011-02-02T13:22:42Z</time>
      </trkpt>
      <trkpt lat="46.42041" lon="6.00169">
        <ele>1205</ele>
        <time>2011-02-02T13:22:53Z</time>
      </trkpt>
      <trkpt lat="46.42044" lon="6.00182">
        <ele>1205</ele>
        <time>2011-02-02T13:23:02Z</time>
      </trkpt>
      <trkpt lat="46.42048" lon="6.00195">
        <ele>1215</ele>
        <time>2011-02-02T13:23:12Z</time>
      </trkpt>
      <trkpt lat="46.42054" lon="6.00206">
        <ele>1231</ele>
        <time>2011-02-02T13:23:24Z</time>
      </trkpt>
      <trkpt lat="46.42057" lon="6.00218">
        <ele>1231</ele>
        <time>2011-02-02T13:23:32Z</time>
      </trkpt>
      <trkpt lat="46.42067" lon="6.00224">
        <ele>1231</ele>
        <time>2011-02-02T13:23:39Z</time>
      </trkpt>
      <trkpt lat="46.42075" lon="6.0023">
        <ele>1231</ele>
        <time>2011-02-02T13:23:48Z</time>
      </trkpt>
      <trkpt lat="46.42079" lon="6.00243">
        <ele>1241</ele>
        <time>2011-02-02T13:24:03Z</time>
      </trkpt>
      <trkpt lat="46.42088" lon="6.00243">
        <ele>1249</ele>
        <time>2011-02-02T13:24:11Z</time>
      </trkpt>
      <trkpt lat="46.42095" lon="6.00252">
        <ele>1257</ele>
        <time>2011-02-02T13:24:21Z</time>
      </trkpt>
      <trkpt lat="46.42102" lon="6.00262">
        <ele>1257</ele>
        <time>2011-02-02T13:24:30Z</time>
      </trkpt>
      <trkpt lat="46.42109" lon="6.0027">
        <ele>1257</ele>
        <time>2011-02-02T13:24:40Z</time>
      </trkpt>
      <trkpt lat="46.42119" lon="6.00279">
        <ele>1242</ele>
        <time>2011-02-02T13:24:50Z</time>
      </trkpt>
      <trkpt lat="46.42124" lon="6.00291">
        <ele>1233</ele>
        <time>2011-02-02T13:24:58Z</time>
      </trkpt>
      <trkpt lat="46.42131" lon="6.00305">
        <ele>1233</ele>
        <time>2011-02-02T13:25:04Z</time>
      </trkpt>
      <trkpt lat="46.42137" lon="6.00316">
        <ele>1233</ele>
        <time>2011-02-02T13:25:08Z</time>
      </trkpt>
      <trkpt lat="46.42142" lon="6.00327">
        <ele>1233</ele>
        <time>2011-02-02T13:25:19Z</time>
      </trkpt>
      <trkpt lat="46.42149" lon="6.00337">
        <ele>1244</ele>
        <time>2011-02-02T13:25:30Z</time>
      </trkpt>
      <trkpt lat="46.42158" lon="6.00343">
        <ele>1259</ele>
        <time>2011-02-02T13:25:41Z</time>
      </trkpt>
      <trkpt lat="46.42166" lon="6.0035">
        <ele>1259</ele>
        <time>2011-02-02T13:25:55Z</time>
      </trkpt>
      <trkpt lat="46.42173" lon="6.00359">
        <ele>1259</ele>
        <time>2011-02-02T13:26:05Z</time>
      </trkpt>
      <trkpt lat="46.42182" lon="6.00362">
        <ele>1246</ele>
        <time>2011-02-02T13:26:12Z</time>
      </trkpt>
      <trkpt lat="46.4219" lon="6.00372">
        <ele>1241</ele>
        <time>2011-02-02T13:26:22Z</time>
      </trkpt>
      <trkpt lat="46.42199" lon="6.00378">
        <ele>1233</ele>
        <time>2011-02-02T13:26:29Z</time>
      </trkpt>
      <trkpt lat="46.42208" lon="6.00387">
        <ele>1227</ele>
        <time>2011-02-02T13:26:36Z</time>
      </trkpt>
      <trkpt lat="46.42213" lon="6.00399">
        <ele>1227</ele>
        <time>2011-02-02T13:26:42Z</time>
      </trkpt>
      <trkpt lat="46.42218" lon="6.00411">
        <ele>1227</ele>
        <time>2011-02-02T13:26:51Z</time>
      </trkpt>
      <trkpt lat="46.42221" lon="6.00423">
        <ele>1235</ele>
        <time>2011-02-02T13:27:00Z</time>
      </trkpt>
      <trkpt lat="46.42229" lon="6.00432">
        <ele>1246</ele>
        <time>2011-02-02T13:27:13Z</time>
      </trkpt>
      <trkpt lat="46.42233" lon="6.00446">
        <ele>1240</ele>
        <time>2011-02-02T13:27:20Z</time>
      </trkpt>
      <trkpt lat="46.42239" lon="6.00457">
        <ele>1240</ele>
        <time>2011-02-02T13:27:30Z</time>
      </trkpt>
      <trkpt lat="46.42244" lon="6.00469">
        <ele>1240</ele>
        <time>2011-02-02T13:27:40Z</time>
      </trkpt>
      <trkpt lat="46.42252" lon="6.00478">
        <ele>1234</ele>
        <time>2011-02-02T13:27:47Z</time>
      </trkpt>
      <trkpt lat="46.42257" lon="6.00491">
        <ele>1227</ele>
        <time>2011-02-02T13:27:55Z</time>
      </trkpt>
      <trkpt lat="46.42259" lon="6.00505">
        <ele>1232</ele>
        <time>2011-02-02T13:28:01Z</time>
      </trkpt>
      <trkpt lat="46.4226" lon="6.00518">
        <ele>1238</ele>
        <time>2011-02-02T13:28:11Z</time>
      </trkpt>
      <trkpt lat="46.42265" lon="6.0053">
        <ele>1238</ele>
        <time>2011-02-02T13:28:23Z</time>
      </trkpt>
      <trkpt lat="46.42272" lon="6.00539">
        <ele>1226</ele>
        <time>2011-02-02T13:29:10Z</time>
      </trkpt>
      <trkpt lat="46.42262" lon="6.00538">
        <ele>1241</ele>
        <time>2011-02-02T13:30:38Z</time>
      </trkpt>
      <trkpt lat="46.42272" lon="6.00537">
        <ele>1230</ele>
        <time>2011-02-02T13:31:42Z</time>
      </trkpt>
      <trkpt lat="46.42275" lon="6.00525">
        <ele>1230</ele>
        <time>2011-02-02T13:32:04Z</time>
      </trkpt>
      <trkpt lat="46.42278" lon="6.0051">
        <ele>1238</ele>
        <time>2011-02-02T13:32:17Z</time>
      </trkpt>
      <trkpt lat="46.4228" lon="6.00498">
        <ele>1238</ele>
        <time>2011-02-02T13:32:30Z</time>
      </trkpt>
      <trkpt lat="46.42288" lon="6.00487">
        <ele>1238</ele>
        <time>2011-02-02T13:32:36Z</time>
      </trkpt>
      <trkpt lat="46.42296" lon="6.00481">
        <ele>1238</ele>
        <time>2011-02-02T13:32:45Z</time>
      </trkpt>
      <trkpt lat="46.42306" lon="6.00483">
        <ele>1250</ele>
        <time>2011-02-02T13:33:03Z</time>
      </trkpt>
      <trkpt lat="46.42315" lon="6.00485">
        <ele>1250</ele>
        <time>2011-02-02T13:33:19Z</time>
      </trkpt>
      <trkpt lat="46.42321" lon="6.00497">
        <ele>1244</ele>
        <time>2011-02-02T13:33:28Z</time>
      </trkpt>
      <trkpt lat="46.42324" lon="6.00509">
        <ele>1249</ele>
        <time>2011-02-02T13:33:36Z</time>
      </trkpt>
      <trkpt lat="46.42333" lon="6.00516">
        <ele>1256</ele>
        <time>2011-02-02T13:34:03Z</time>
      </trkpt>
      <trkpt lat="46.42341" lon="6.00523">
        <ele>1249</ele>
        <time>2011-02-02T13:34:12Z</time>
      </trkpt>
      <trkpt lat="46.4235" lon="6.00526">
        <ele>1249</ele>
        <time>2011-02-02T13:34:20Z</time>
      </trkpt>
      <trkpt lat="46.42358" lon="6.00533">
        <ele>1249</ele>
        <time>2011-02-02T13:34:27Z</time>
      </trkpt>
      <trkpt lat="46.42365" lon="6.00542">
        <ele>1249</ele>
        <time>2011-02-02T13:34:36Z</time>
      </trkpt>
      <trkpt lat="46.42369" lon="6.00553">
        <ele>1249</ele>
        <time>2011-02-02T13:34:48Z</time>
      </trkpt>
      <trkpt lat="46.42374" lon="6.00565">
        <ele>1261</ele>
        <time>2011-02-02T13:34:58Z</time>
      </trkpt>
      <trkpt lat="46.42383" lon="6.00571">
        <ele>1261</ele>
        <time>2011-02-02T13:35:09Z</time>
      </trkpt>
      <trkpt lat="46.4239" lon="6.00581">
        <ele>1267</ele>
        <time>2011-02-02T13:35:17Z</time>
      </trkpt>
      <trkpt lat="46.42398" lon="6.00588">
        <ele>1267</ele>
        <time>2011-02-02T13:35:27Z</time>
      </trkpt>
      <trkpt lat="46.42405" lon="6.00597">
        <ele>1267</ele>
        <time>2011-02-02T13:35:40Z</time>
      </trkpt>
      <trkpt lat="46.42413" lon="6.00603">
        <ele>1275</ele>
        <time>2011-02-02T13:35:52Z</time>
      </trkpt>
      <trkpt lat="46.42422" lon="6.00609">
        <ele>1275</ele>
        <time>2011-02-02T13:35:58Z</time>
      </trkpt>
      <trkpt lat="46.42431" lon="6.00614">
        <ele>1282</ele>
        <time>2011-02-02T13:36:11Z</time>
      </trkpt>
      <trkpt lat="46.42438" lon="6.00624">
        <ele>1282</ele>
        <time>2011-02-02T13:36:20Z</time>
      </trkpt>
      <trkpt lat="46.42445" lon="6.00634">
        <ele>1282</ele>
        <time>2011-02-02T13:36:30Z</time>
      </trkpt>
      <trkpt lat="46.42453" lon="6.00641">
        <ele>1276</ele>
        <time>2011-02-02T13:36:40Z</time>
      </trkpt>
      <trkpt lat="46.42462" lon="6.00647">
        <ele>1276</ele>
        <time>2011-02-02T13:36:49Z</time>
      </trkpt>
      <trkpt lat="46.42472" lon="6.00647">
        <ele>1276</ele>
        <time>2011-02-02T13:36:58Z</time>
      </trkpt>
      <trkpt lat="46.4248" lon="6.00655">
        <ele>1276</ele>
        <time>2011-02-02T13:37:08Z</time>
      </trkpt>
      <trkpt lat="46.42488" lon="6.00662">
        <ele>1276</ele>
        <time>2011-02-02T13:37:15Z</time>
      </trkpt>
      <trkpt lat="46.42497" lon="6.00669">
        <ele>1276</ele>
        <time>2011-02-02T13:37:24Z</time>
      </trkpt>
      <trkpt lat="46.425" lon="6.00682">
        <ele>1276</ele>
        <time>2011-02-02T13:37:34Z</time>
      </trkpt>
      <trkpt lat="46.42508" lon="6.00691">
        <ele>1283</ele>
        <time>2011-02-02T13:37:46Z</time>
      </trkpt>
      <trkpt lat="46.42515" lon="6.007">
        <ele>1283</ele>
        <time>2011-02-02T13:37:56Z</time>
      </trkpt>
      <trkpt lat="46.4252" lon="6.00713">
        <ele>1283</ele>
        <time>2011-02-02T13:38:05Z</time>
      </trkpt>
      <trkpt lat="46.42529" lon="6.00717">
        <ele>1283</ele>
        <time>2011-02-02T13:38:11Z</time>
      </trkpt>
      <trkpt lat="46.42538" lon="6.00721">
        <ele>1283</ele>
        <time>2011-02-02T13:38:20Z</time>
      </trkpt>
      <trkpt lat="46.42546" lon="6.00725">
        <ele>1277</ele>
        <time>2011-02-02T13:38:26Z</time>
      </trkpt>
      <trkpt lat="46.42556" lon="6.00727">
        <ele>1277</ele>
        <time>2011-02-02T13:38:37Z</time>
      </trkpt>
      <trkpt lat="46.42563" lon="6.00718">
        <ele>1284</ele>
        <time>2011-02-02T13:38:52Z</time>
      </trkpt>
      <trkpt lat="46.42566" lon="6.00705">
        <ele>1279</ele>
        <time>2011-02-02T13:39:01Z</time>
      </trkpt>
      <trkpt lat="46.42569" lon="6.00693">
        <ele>1279</ele>
        <time>2011-02-02T13:39:08Z</time>
      </trkpt>
      <trkpt lat="46.42571" lon="6.0068">
        <ele>1285</ele>
        <time>2011-02-02T13:39:16Z</time>
      </trkpt>
      <trkpt lat="46.42577" lon="6.00668">
        <ele>1285</ele>
        <time>2011-02-02T13:39:24Z</time>
      </trkpt>
      <trkpt lat="46.42582" lon="6.00656">
        <ele>1285</ele>
        <time>2011-02-02T13:39:28Z</time>
      </trkpt>
      <trkpt lat="46.42587" lon="6.00643">
        <ele>1285</ele>
        <time>2011-02-02T13:39:37Z</time>
      </trkpt>
      <trkpt lat="46.4259" lon="6.00631">
        <ele>1275</ele>
        <time>2011-02-02T13:39:47Z</time>
      </trkpt>
      <trkpt lat="46.42595" lon="6.00616">
        <ele>1275</ele>
        <time>2011-02-02T13:39:56Z</time>
      </trkpt>
      <trkpt lat="46.42598" lon="6.00603">
        <ele>1283</ele>
        <time>2011-02-02T13:40:01Z</time>
      </trkpt>
      <trkpt lat="46.42598" lon="6.00589">
        <ele>1283</ele>
        <time>2011-02-02T13:40:15Z</time>
      </trkpt>
      <trkpt lat="46.42603" lon="6.00577">
        <ele>1283</ele>
        <time>2011-02-02T13:40:24Z</time>
      </trkpt>
      <trkpt lat="46.42608" lon="6.00565">
        <ele>1289</ele>
        <time>2011-02-02T13:40:31Z</time>
      </trkpt>
      <trkpt lat="46.42611" lon="6.00553">
        <ele>1289</ele>
        <time>2011-02-02T13:40:43Z</time>
      </trkpt>
      <trkpt lat="46.42615" lon="6.00538">
        <ele>1280</ele>
        <time>2011-02-02T13:40:57Z</time>
      </trkpt>
      <trkpt lat="46.42619" lon="6.00527">
        <ele>1272</ele>
        <time>2011-02-02T13:41:05Z</time>
      </trkpt>
      <trkpt lat="46.42628" lon="6.00521">
        <ele>1272</ele>
        <time>2011-02-02T13:41:53Z</time>
      </trkpt>
      <trkpt lat="46.42631" lon="6.00509">
        <ele>1281</ele>
        <time>2011-02-02T13:42:03Z</time>
      </trkpt>
      <trkpt lat="46.42632" lon="6.00494">
        <ele>1281</ele>
        <time>2011-02-02T13:42:13Z</time>
      </trkpt>
      <trkpt lat="46.42634" lon="6.0048">
        <ele>1281</ele>
        <time>2011-02-02T13:42:27Z</time>
      </trkpt>
      <trkpt lat="46.42632" lon="6.00466">
        <ele>1281</ele>
        <time>2011-02-02T13:42:37Z</time>
      </trkpt>
      <trkpt lat="46.42628" lon="6.00454">
        <ele>1288</ele>
        <time>2011-02-02T13:42:49Z</time>
      </trkpt>
      <trkpt lat="46.42625" lon="6.0044">
        <ele>1300</ele>
        <time>2011-02-02T13:43:01Z</time>
      </trkpt>
      <trkpt lat="46.42629" lon="6.00428">
        <ele>1305</ele>
        <time>2011-02-02T13:43:09Z</time>
      </trkpt>
      <trkpt lat="46.42633" lon="6.00415">
        <ele>1305</ele>
        <time>2011-02-02T13:43:19Z</time>
      </trkpt>
      <trkpt lat="46.42637" lon="6.004">
        <ele>1294</ele>
        <time>2011-02-02T13:43:26Z</time>
      </trkpt>
      <trkpt lat="46.42644" lon="6.0039">
        <ele>1285</ele>
        <time>2011-02-02T13:43:31Z</time>
      </trkpt>
      <trkpt lat="46.42649" lon="6.00378">
        <ele>1285</ele>
        <time>2011-02-02T13:43:40Z</time>
      </trkpt>
      <trkpt lat="46.4265" lon="6.00365">
        <ele>1285</ele>
        <time>2011-02-02T13:43:51Z</time>
      </trkpt>
      <trkpt lat="46.42651" lon="6.0035">
        <ele>1285</ele>
        <time>2011-02-02T13:44:07Z</time>
      </trkpt>
      <trkpt lat="46.4265" lon="6.00335">
        <ele>1293</ele>
        <time>2011-02-02T13:44:18Z</time>
      </trkpt>
      <trkpt lat="46.4265" lon="6.00322">
        <ele>1293</ele>
        <time>2011-02-02T13:44:26Z</time>
      </trkpt>
      <trkpt lat="46.42656" lon="6.00309">
        <ele>1293</ele>
        <time>2011-02-02T13:44:40Z</time>
      </trkpt>
      <trkpt lat="46.42659" lon="6.00296">
        <ele>1271</ele>
        <time>2011-02-02T13:44:52Z</time>
      </trkpt>
      <trkpt lat="46.42658" lon="6.00282">
        <ele>1284</ele>
        <time>2011-02-02T13:45:03Z</time>
      </trkpt>
      <trkpt lat="46.42659" lon="6.00296">
        <ele>1284</ele>
        <time>2011-02-02T13:46:36Z</time>
      </trkpt>
      <trkpt lat="46.4266" lon="6.00281">
        <ele>1273</ele>
        <time>2011-02-02T13:47:43Z</time>
      </trkpt>
      <trkpt lat="46.42661" lon="6.00268">
        <ele>1273</ele>
        <time>2011-02-02T13:47:54Z</time>
      </trkpt>
      <trkpt lat="46.42662" lon="6.00254">
        <ele>1278</ele>
        <time>2011-02-02T13:48:04Z</time>
      </trkpt>
      <trkpt lat="46.42663" lon="6.00241">
        <ele>1278</ele>
        <time>2011-02-02T13:48:13Z</time>
      </trkpt>
      <trkpt lat="46.42662" lon="6.00226">
        <ele>1285</ele>
        <time>2011-02-02T13:48:24Z</time>
      </trkpt>
      <trkpt lat="46.42664" lon="6.00213">
        <ele>1285</ele>
        <time>2011-02-02T13:48:33Z</time>
      </trkpt>
      <trkpt lat="46.42668" lon="6.002">
        <ele>1285</ele>
        <time>2011-02-02T13:48:41Z</time>
      </trkpt>
      <trkpt lat="46.42669" lon="6.00186">
        <ele>1285</ele>
        <time>2011-02-02T13:48:49Z</time>
      </trkpt>
      <trkpt lat="46.42673" lon="6.00173">
        <ele>1285</ele>
        <time>2011-02-02T13:48:58Z</time>
      </trkpt>
      <trkpt lat="46.42679" lon="6.00164">
        <ele>1285</ele>
        <time>2011-02-02T13:49:05Z</time>
      </trkpt>
      <trkpt lat="46.42685" lon="6.00153">
        <ele>1285</ele>
        <time>2011-02-02T13:49:13Z</time>
      </trkpt>
      <trkpt lat="46.42692" lon="6.00144">
        <ele>1285</ele>
        <time>2011-02-02T13:49:20Z</time>
      </trkpt>
      <trkpt lat="46.42699" lon="6.00136">
        <ele>1285</ele>
        <time>2011-02-02T13:49:30Z</time>
      </trkpt>
      <trkpt lat="46.42703" lon="6.00124">
        <ele>1285</ele>
        <time>2011-02-02T13:49:40Z</time>
      </trkpt>
      <trkpt lat="46.42709" lon="6.00112">
        <ele>1285</ele>
        <time>2011-02-02T13:49:49Z</time>
      </trkpt>
      <trkpt lat="46.42716" lon="6.00103">
        <ele>1285</ele>
        <time>2011-02-02T13:50:00Z</time>
      </trkpt>
      <trkpt lat="46.42725" lon="6.001">
        <ele>1285</ele>
        <time>2011-02-02T13:50:09Z</time>
      </trkpt>
      <trkpt lat="46.42734" lon="6.00101">
        <ele>1285</ele>
        <time>2011-02-02T13:50:18Z</time>
      </trkpt>
      <trkpt lat="46.42742" lon="6.0011">
        <ele>1293</ele>
        <time>2011-02-02T13:50:29Z</time>
      </trkpt>
      <trkpt lat="46.42747" lon="6.00121">
        <ele>1300</ele>
        <time>2011-02-02T13:50:40Z</time>
      </trkpt>
      <trkpt lat="46.42748" lon="6.00135">
        <ele>1300</ele>
        <time>2011-02-02T13:50:49Z</time>
      </trkpt>
      <trkpt lat="46.42751" lon="6.00148">
        <ele>1300</ele>
        <time>2011-02-02T13:50:56Z</time>
      </trkpt>
      <trkpt lat="46.42755" lon="6.00161">
        <ele>1306</ele>
        <time>2011-02-02T13:51:13Z</time>
      </trkpt>
      <trkpt lat="46.42762" lon="6.0017">
        <ele>1306</ele>
        <time>2011-02-02T13:51:32Z</time>
      </trkpt>
      <trkpt lat="46.4277" lon="6.00164">
        <ele>1306</ele>
        <time>2011-02-02T13:51:45Z</time>
      </trkpt>
      <trkpt lat="46.42777" lon="6.00155">
        <ele>1300</ele>
        <time>2011-02-02T13:51:56Z</time>
      </trkpt>
      <trkpt lat="46.42782" lon="6.00143">
        <ele>1300</ele>
        <time>2011-02-02T13:52:11Z</time>
      </trkpt>
      <trkpt lat="46.42789" lon="6.00132">
        <ele>1300</ele>
        <time>2011-02-02T13:52:20Z</time>
      </trkpt>
      <trkpt lat="46.42795" lon="6.00121">
        <ele>1300</ele>
        <time>2011-02-02T13:52:32Z</time>
      </trkpt>
      <trkpt lat="46.42801" lon="6.0011">
        <ele>1308</ele>
        <time>2011-02-02T13:52:44Z</time>
      </trkpt>
      <trkpt lat="46.42808" lon="6.00101">
        <ele>1308</ele>
        <time>2011-02-02T13:52:52Z</time>
      </trkpt>
      <trkpt lat="46.42815" lon="6.00093">
        <ele>1308</ele>
        <time>2011-02-02T13:53:03Z</time>
      </trkpt>
      <trkpt lat="46.42822" lon="6.00082">
        <ele>1308</ele>
        <time>2011-02-02T13:53:14Z</time>
      </trkpt>
      <trkpt lat="46.42826" lon="6.00069">
        <ele>1308</ele>
        <time>2011-02-02T13:53:26Z</time>
      </trkpt>
      <trkpt lat="46.42833" lon="6.00058">
        <ele>1308</ele>
        <time>2011-02-02T13:53:36Z</time>
      </trkpt>
      <trkpt lat="46.42838" lon="6.00047">
        <ele>1308</ele>
        <time>2011-02-02T13:53:45Z</time>
      </trkpt>
      <trkpt lat="46.42847" lon="6.00041">
        <ele>1308</ele>
        <time>2011-02-02T13:53:56Z</time>
      </trkpt>
      <trkpt lat="46.42857" lon="6.0004">
        <ele>1308</ele>
        <time>2011-02-02T13:54:10Z</time>
      </trkpt>
      <trkpt lat="46.42866" lon="6.00039">
        <ele>1314</ele>
        <time>2011-02-02T13:54:24Z</time>
      </trkpt>
      <trkpt lat="46.42875" lon="6.0004">
        <ele>1320</ele>
        <time>2011-02-02T13:54:42Z</time>
      </trkpt>
      <trkpt lat="46.42882" lon="6.0003">
        <ele>1320</ele>
        <time>2011-02-02T13:54:56Z</time>
      </trkpt>
      <trkpt lat="46.4289" lon="6.00024">
        <ele>1320</ele>
        <time>2011-02-02T13:55:13Z</time>
      </trkpt>
      <trkpt lat="46.42899" lon="6.00021">
        <ele>1320</ele>
        <time>2011-02-02T13:55:32Z</time>
      </trkpt>
      <trkpt lat="46.42909" lon="6.00018">
        <ele>1315</ele>
        <time>2011-02-02T13:55:44Z</time>
      </trkpt>
      <trkpt lat="46.42918" lon="6.00013">
        <ele>1315</ele>
        <time>2011-02-02T13:55:54Z</time>
      </trkpt>
      <trkpt lat="46.42927" lon="6.00012">
        <ele>1308</ele>
        <time>2011-02-02T13:56:23Z</time>
      </trkpt>
      <trkpt lat="46.42933" lon="6.00002">
        <ele>1308</ele>
        <time>2011-02-02T13:56:33Z</time>
      </trkpt>
      <trkpt lat="46.42939" lon="5.99991">
        <ele>1308</ele>
        <time>2011-02-02T13:56:41Z</time>
      </trkpt>
      <trkpt lat="46.42946" lon="5.99982">
        <ele>1308</ele>
        <time>2011-02-02T13:56:52Z</time>
      </trkpt>
      <trkpt lat="46.42954" lon="5.99975">
        <ele>1308</ele>
        <time>2011-02-02T13:57:21Z</time>
      </trkpt>
      <trkpt lat="46.4296" lon="5.99964">
        <ele>1308</ele>
        <time>2011-02-02T13:57:41Z</time>
      </trkpt>
      <trkpt lat="46.42967" lon="5.99956">
        <ele>1302</ele>
        <time>2011-02-02T13:57:56Z</time>
      </trkpt>
      <trkpt lat="46.42974" lon="5.99946">
        <ele>1302</ele>
        <time>2011-02-02T13:58:09Z</time>
      </trkpt>
      <trkpt lat="46.42982" lon="5.9994">
        <ele>1294</ele>
        <time>2011-02-02T13:58:21Z</time>
      </trkpt>
      <trkpt lat="46.42988" lon="5.9993">
        <ele>1294</ele>
        <time>2011-02-02T13:58:30Z</time>
      </trkpt>
      <trkpt lat="46.42994" lon="5.99917">
        <ele>1294</ele>
        <time>2011-02-02T13:58:42Z</time>
      </trkpt>
      <trkpt lat="46.43004" lon="5.99911">
        <ele>1299</ele>
        <time>2011-02-02T13:58:52Z</time>
      </trkpt>
      <trkpt lat="46.43013" lon="5.99903">
        <ele>1299</ele>
        <time>2011-02-02T13:59:00Z</time>
      </trkpt>
      <trkpt lat="46.43021" lon="5.99896">
        <ele>1299</ele>
        <time>2011-02-02T13:59:09Z</time>
      </trkpt>
      <trkpt lat="46.43027" lon="5.99885">
        <ele>1299</ele>
        <time>2011-02-02T13:59:18Z</time>
      </trkpt>
      <trkpt lat="46.43033" lon="5.99874">
        <ele>1299</ele>
        <time>2011-02-02T13:59:28Z</time>
      </trkpt>
      <trkpt lat="46.43039" lon="5.99864">
        <ele>1299</ele>
        <time>2011-02-02T13:59:39Z</time>
      </trkpt>
      <trkpt lat="46.43046" lon="5.99854">
        <ele>1299</ele>
        <time>2011-02-02T13:59:49Z</time>
      </trkpt>
      <trkpt lat="46.4305" lon="5.99842">
        <ele>1299</ele>
        <time>2011-02-02T13:59:58Z</time>
      </trkpt>
      <trkpt lat="46.43055" lon="5.9983">
        <ele>1299</ele>
        <time>2011-02-02T14:00:09Z</time>
      </trkpt>
      <trkpt lat="46.43061" lon="5.9982">
        <ele>1299</ele>
        <time>2011-02-02T14:00:19Z</time>
      </trkpt>
      <trkpt lat="46.43066" lon="5.99808">
        <ele>1299</ele>
        <time>2011-02-02T14:00:27Z</time>
      </trkpt>
      <trkpt lat="46.43071" lon="5.99795">
        <ele>1299</ele>
        <time>2011-02-02T14:00:37Z</time>
      </trkpt>
      <trkpt lat="46.4308" lon="5.99789">
        <ele>1299</ele>
        <time>2011-02-02T14:00:49Z</time>
      </trkpt>
      <trkpt lat="46.43087" lon="5.99778">
        <ele>1299</ele>
        <time>2011-02-02T14:01:04Z</time>
      </trkpt>
      <trkpt lat="46.43093" lon="5.99768">
        <ele>1299</ele>
        <time>2011-02-02T14:01:13Z</time>
      </trkpt>
      <trkpt lat="46.43096" lon="5.99754">
        <ele>1299</ele>
        <time>2011-02-02T14:01:25Z</time>
      </trkpt>
      <trkpt lat="46.43103" lon="5.99745">
        <ele>1299</ele>
        <time>2011-02-02T14:01:33Z</time>
      </trkpt>
      <trkpt lat="46.4311" lon="5.99736">
        <ele>1299</ele>
        <time>2011-02-02T14:01:42Z</time>
      </trkpt>
      <trkpt lat="46.43116" lon="5.99725">
        <ele>1299</ele>
        <time>2011-02-02T14:01:53Z</time>
      </trkpt>
      <trkpt lat="46.43123" lon="5.99716">
        <ele>1299</ele>
        <time>2011-02-02T14:02:03Z</time>
      </trkpt>
      <trkpt lat="46.43131" lon="5.9971">
        <ele>1299</ele>
        <time>2011-02-02T14:02:26Z</time>
      </trkpt>
      <trkpt lat="46.4314" lon="5.99706">
        <ele>1294</ele>
        <time>2011-02-02T14:02:36Z</time>
      </trkpt>
      <trkpt lat="46.43148" lon="5.99699">
        <ele>1294</ele>
        <time>2011-02-02T14:02:44Z</time>
      </trkpt>
      <trkpt lat="46.43156" lon="5.9969">
        <ele>1294</ele>
        <time>2011-02-02T14:03:01Z</time>
      </trkpt>
      <trkpt lat="46.43164" lon="5.99684">
        <ele>1284</ele>
        <time>2011-02-02T14:03:14Z</time>
      </trkpt>
      <trkpt lat="46.43171" lon="5.99673">
        <ele>1284</ele>
        <time>2011-02-02T14:03:29Z</time>
      </trkpt>
      <trkpt lat="46.43168" lon="5.99661">
        <ele>1284</ele>
        <time>2011-02-02T14:03:41Z</time>
      </trkpt>
      <trkpt lat="46.43164" lon="5.99648">
        <ele>1284</ele>
        <time>2011-02-02T14:03:55Z</time>
      </trkpt>
      <trkpt lat="46.4316" lon="5.99636">
        <ele>1284</ele>
        <time>2011-02-02T14:04:02Z</time>
      </trkpt>
      <trkpt lat="46.43155" lon="5.99624">
        <ele>1284</ele>
        <time>2011-02-02T14:04:10Z</time>
      </trkpt>
      <trkpt lat="46.43153" lon="5.99609">
        <ele>1284</ele>
        <time>2011-02-02T14:04:21Z</time>
      </trkpt>
      <trkpt lat="46.43154" lon="5.99596">
        <ele>1284</ele>
        <time>2011-02-02T14:04:28Z</time>
      </trkpt>
      <trkpt lat="46.43162" lon="5.99585">
        <ele>1284</ele>
        <time>2011-02-02T14:04:33Z</time>
      </trkpt>
      <trkpt lat="46.43169" lon="5.99575">
        <ele>1277</ele>
        <time>2011-02-02T14:04:46Z</time>
      </trkpt>
      <trkpt lat="46.43172" lon="5.99562">
        <ele>1277</ele>
        <time>2011-02-02T14:04:56Z</time>
      </trkpt>
      <trkpt lat="46.43175" lon="5.99549">
        <ele>1277</ele>
        <time>2011-02-02T14:05:06Z</time>
      </trkpt>
      <trkpt lat="46.43179" lon="5.99537">
        <ele>1271</ele>
        <time>2011-02-02T14:05:19Z</time>
      </trkpt>
      <trkpt lat="46.43187" lon="5.99528">
        <ele>1271</ele>
        <time>2011-02-02T14:05:32Z</time>
      </trkpt>
      <trkpt lat="46.43192" lon="5.99515">
        <ele>1271</ele>
        <time>2011-02-02T14:05:46Z</time>
      </trkpt>
      <trkpt lat="46.43198" lon="5.99504">
        <ele>1271</ele>
        <time>2011-02-02T14:05:57Z</time>
      </trkpt>
      <trkpt lat="46.43198" lon="5.99491">
        <ele>1271</ele>
        <time>2011-02-02T14:06:08Z</time>
      </trkpt>
      <trkpt lat="46.43198" lon="5.99476">
        <ele>1271</ele>
        <time>2011-02-02T14:06:21Z</time>
      </trkpt>
      <trkpt lat="46.43196" lon="5.99464">
        <ele>1271</ele>
        <time>2011-02-02T14:06:31Z</time>
      </trkpt>
      <trkpt lat="46.43198" lon="5.9945">
        <ele>1271</ele>
        <time>2011-02-02T14:06:40Z</time>
      </trkpt>
      <trkpt lat="46.43201" lon="5.99437">
        <ele>1266</ele>
        <time>2011-02-02T14:06:47Z</time>
      </trkpt>
      <trkpt lat="46.432" lon="5.99422">
        <ele>1266</ele>
        <time>2011-02-02T14:06:57Z</time>
      </trkpt>
      <trkpt lat="46.43208" lon="5.99413">
        <ele>1260</ele>
        <time>2011-02-02T14:07:49Z</time>
      </trkpt>
      <trkpt lat="46.43206" lon="5.99399">
        <ele>1269</ele>
        <time>2011-02-02T14:08:31Z</time>
      </trkpt>
      <trkpt lat="46.43205" lon="5.99413">
        <ele>1255</ele>
        <time>2011-02-02T14:09:26Z</time>
      </trkpt>
      <trkpt lat="46.43203" lon="5.99426">
        <ele>1238</ele>
        <time>2011-02-02T14:09:38Z</time>
      </trkpt>
      <trkpt lat="46.43201" lon="5.99413">
        <ele>1247</ele>
        <time>2011-02-02T14:09:53Z</time>
      </trkpt>
      <trkpt lat="46.43208" lon="5.99404">
        <ele>1255</ele>
        <time>2011-02-02T14:10:28Z</time>
      </trkpt>
      <trkpt lat="46.432" lon="5.99412">
        <ele>1264</ele>
        <time>2011-02-02T14:11:56Z</time>
      </trkpt>
      <trkpt lat="46.43196" lon="5.994">
        <ele>1264</ele>
        <time>2011-02-02T14:13:02Z</time>
      </trkpt>
      <trkpt lat="46.43186" lon="5.99397">
        <ele>1270</ele>
        <time>2011-02-02T14:13:55Z</time>
      </trkpt>
      <trkpt lat="46.43177" lon="5.99394">
        <ele>1270</ele>
        <time>2011-02-02T14:14:08Z</time>
      </trkpt>
      <trkpt lat="46.43169" lon="5.9939">
        <ele>1270</ele>
        <time>2011-02-02T14:14:30Z</time>
      </trkpt>
      <trkpt lat="46.43159" lon="5.99389">
        <ele>1270</ele>
        <time>2011-02-02T14:14:37Z</time>
      </trkpt>
      <trkpt lat="46.43152" lon="5.9938">
        <ele>1263</ele>
        <time>2011-02-02T14:14:53Z</time>
      </trkpt>
      <trkpt lat="46.43146" lon="5.9937">
        <ele>1258</ele>
        <time>2011-02-02T14:15:09Z</time>
      </trkpt>
      <trkpt lat="46.43137" lon="5.99363">
        <ele>1258</ele>
        <time>2011-02-02T14:15:19Z</time>
      </trkpt>
      <trkpt lat="46.43128" lon="5.99356">
        <ele>1258</ele>
        <time>2011-02-02T14:15:30Z</time>
      </trkpt>
      <trkpt lat="46.4312" lon="5.99349">
        <ele>1258</ele>
        <time>2011-02-02T14:15:39Z</time>
      </trkpt>
      <trkpt lat="46.43114" lon="5.99338">
        <ele>1263</ele>
        <time>2011-02-02T14:15:47Z</time>
      </trkpt>
      <trkpt lat="46.43113" lon="5.99325">
        <ele>1263</ele>
        <time>2011-02-02T14:15:54Z</time>
      </trkpt>
      <trkpt lat="46.4311" lon="5.9931">
        <ele>1263</ele>
        <time>2011-02-02T14:16:06Z</time>
      </trkpt>
      <trkpt lat="46.43113" lon="5.99298">
        <ele>1263</ele>
        <time>2011-02-02T14:16:14Z</time>
      </trkpt>
      <trkpt lat="46.43111" lon="5.99284">
        <ele>1256</ele>
        <time>2011-02-02T14:16:39Z</time>
      </trkpt>
      <trkpt lat="46.43107" lon="5.99272">
        <ele>1256</ele>
        <time>2011-02-02T14:16:55Z</time>
      </trkpt>
      <trkpt lat="46.4311" lon="5.9926">
        <ele>1246</ele>
        <time>2011-02-02T14:17:10Z</time>
      </trkpt>
      <trkpt lat="46.43103" lon="5.99248">
        <ele>1246</ele>
        <time>2011-02-02T14:17:21Z</time>
      </trkpt>
      <trkpt lat="46.43104" lon="5.99235">
        <ele>1246</ele>
        <time>2011-02-02T14:17:33Z</time>
      </trkpt>
      <trkpt lat="46.43103" lon="5.99221">
        <ele>1246</ele>
        <time>2011-02-02T14:17:45Z</time>
      </trkpt>
      <trkpt lat="46.43098" lon="5.9921">
        <ele>1246</ele>
        <time>2011-02-02T14:18:05Z</time>
      </trkpt>
      <trkpt lat="46.43091" lon="5.99201">
        <ele>1246</ele>
        <time>2011-02-02T14:18:16Z</time>
      </trkpt>
      <trkpt lat="46.43086" lon="5.99189">
        <ele>1246</ele>
        <time>2011-02-02T14:18:24Z</time>
      </trkpt>
      <trkpt lat="46.43087" lon="5.99175">
        <ele>1246</ele>
        <time>2011-02-02T14:18:34Z</time>
      </trkpt>
      <trkpt lat="46.43079" lon="5.99166">
        <ele>1238</ele>
        <time>2011-02-02T14:18:47Z</time>
      </trkpt>
      <trkpt lat="46.43071" lon="5.9916">
        <ele>1238</ele>
        <time>2011-02-02T14:18:54Z</time>
      </trkpt>
      <trkpt lat="46.43062" lon="5.99157">
        <ele>1231</ele>
        <time>2011-02-02T14:19:02Z</time>
      </trkpt>
      <trkpt lat="46.43054" lon="5.99149">
        <ele>1231</ele>
        <time>2011-02-02T14:19:15Z</time>
      </trkpt>
      <trkpt lat="46.43046" lon="5.99141">
        <ele>1231</ele>
        <time>2011-02-02T14:19:25Z</time>
      </trkpt>
      <trkpt lat="46.43036" lon="5.99137">
        <ele>1231</ele>
        <time>2011-02-02T14:19:33Z</time>
      </trkpt>
      <trkpt lat="46.43027" lon="5.99131">
        <ele>1225</ele>
        <time>2011-02-02T14:19:41Z</time>
      </trkpt>
      <trkpt lat="46.43018" lon="5.99124">
        <ele>1225</ele>
        <time>2011-02-02T14:19:49Z</time>
      </trkpt>
      <trkpt lat="46.4301" lon="5.9912">
        <ele>1220</ele>
        <time>2011-02-02T14:19:58Z</time>
      </trkpt>
      <trkpt lat="46.43" lon="5.99114">
        <ele>1220</ele>
        <time>2011-02-02T14:20:07Z</time>
      </trkpt>
      <trkpt lat="46.42992" lon="5.99109">
        <ele>1213</ele>
        <time>2011-02-02T14:20:17Z</time>
      </trkpt>
      <trkpt lat="46.42982" lon="5.99109">
        <ele>1213</ele>
        <time>2011-02-02T14:20:25Z</time>
      </trkpt>
      <trkpt lat="46.42971" lon="5.9911">
        <ele>1213</ele>
        <time>2011-02-02T14:20:33Z</time>
      </trkpt>
      <trkpt lat="46.42964" lon="5.99099">
        <ele>1213</ele>
        <time>2011-02-02T14:21:06Z</time>
      </trkpt>
      <trkpt lat="46.42956" lon="5.99095">
        <ele>1213</ele>
        <time>2011-02-02T14:21:12Z</time>
      </trkpt>
      <trkpt lat="46.42948" lon="5.99087">
        <ele>1213</ele>
        <time>2011-02-02T14:21:19Z</time>
      </trkpt>
      <trkpt lat="46.42939" lon="5.99082">
        <ele>1213</ele>
        <time>2011-02-02T14:21:27Z</time>
      </trkpt>
      <trkpt lat="46.4293" lon="5.99078">
        <ele>1213</ele>
        <time>2011-02-02T14:21:35Z</time>
      </trkpt>
      <trkpt lat="46.42921" lon="5.99072">
        <ele>1213</ele>
        <time>2011-02-02T14:21:44Z</time>
      </trkpt>
      <trkpt lat="46.42913" lon="5.99066">
        <ele>1213</ele>
        <time>2011-02-02T14:21:53Z</time>
      </trkpt>
      <trkpt lat="46.42905" lon="5.99061">
        <ele>1213</ele>
        <time>2011-02-02T14:22:02Z</time>
      </trkpt>
      <trkpt lat="46.42896" lon="5.99057">
        <ele>1213</ele>
        <time>2011-02-02T14:22:11Z</time>
      </trkpt>
      <trkpt lat="46.42886" lon="5.99054">
        <ele>1213</ele>
        <time>2011-02-02T14:22:21Z</time>
      </trkpt>
      <trkpt lat="46.42877" lon="5.99051">
        <ele>1213</ele>
        <time>2011-02-02T14:22:31Z</time>
      </trkpt>
      <trkpt lat="46.42869" lon="5.99044">
        <ele>1219</ele>
        <time>2011-02-02T14:22:43Z</time>
      </trkpt>
      <trkpt lat="46.42859" lon="5.99038">
        <ele>1219</ele>
        <time>2011-02-02T14:22:54Z</time>
      </trkpt>
      <trkpt lat="46.42851" lon="5.99031">
        <ele>1219</ele>
        <time>2011-02-02T14:23:03Z</time>
      </trkpt>
      <trkpt lat="46.42842" lon="5.99022">
        <ele>1219</ele>
        <time>2011-02-02T14:23:13Z</time>
      </trkpt>
      <trkpt lat="46.42834" lon="5.99014">
        <ele>1219</ele>
        <time>2011-02-02T14:23:23Z</time>
      </trkpt>
      <trkpt lat="46.42826" lon="5.99006">
        <ele>1219</ele>
        <time>2011-02-02T14:23:33Z</time>
      </trkpt>
      <trkpt lat="46.42818" lon="5.98998">
        <ele>1219</ele>
        <time>2011-02-02T14:23:41Z</time>
      </trkpt>
      <trkpt lat="46.42811" lon="5.98989">
        <ele>1219</ele>
        <time>2011-02-02T14:23:49Z</time>
      </trkpt>
      <trkpt lat="46.42803" lon="5.98981">
        <ele>1219</ele>
        <time>2011-02-02T14:23:57Z</time>
      </trkpt>
      <trkpt lat="46.42795" lon="5.98974">
        <ele>1219</ele>
        <time>2011-02-02T14:24:06Z</time>
      </trkpt>
      <trkpt lat="46.42788" lon="5.98965">
        <ele>1219</ele>
        <time>2011-02-02T14:24:14Z</time>
      </trkpt>
      <trkpt lat="46.42781" lon="5.98956">
        <ele>1219</ele>
        <time>2011-02-02T14:24:22Z</time>
      </trkpt>
      <trkpt lat="46.42774" lon="5.98947">
        <ele>1219</ele>
        <time>2011-02-02T14:24:31Z</time>
      </trkpt>
      <trkpt lat="46.42767" lon="5.98937">
        <ele>1219</ele>
        <time>2011-02-02T14:24:40Z</time>
      </trkpt>
      <trkpt lat="46.4276" lon="5.98928">
        <ele>1219</ele>
        <time>2011-02-02T14:24:48Z</time>
      </trkpt>
      <trkpt lat="46.42752" lon="5.9892">
        <ele>1219</ele>
        <time>2011-02-02T14:24:56Z</time>
      </trkpt>
      <trkpt lat="46.42744" lon="5.9891">
        <ele>1219</ele>
        <time>2011-02-02T14:25:04Z</time>
      </trkpt>
      <trkpt lat="46.42736" lon="5.98903">
        <ele>1219</ele>
        <time>2011-02-02T14:25:12Z</time>
      </trkpt>
      <trkpt lat="46.42727" lon="5.98894">
        <ele>1219</ele>
        <time>2011-02-02T14:25:20Z</time>
      </trkpt>
      <trkpt lat="46.4272" lon="5.98885">
        <ele>1219</ele>
        <time>2011-02-02T14:25:28Z</time>
      </trkpt>
      <trkpt lat="46.42713" lon="5.98874">
        <ele>1219</ele>
        <time>2011-02-02T14:25:37Z</time>
      </trkpt>
      <trkpt lat="46.42707" lon="5.98862">
        <ele>1219</ele>
        <time>2011-02-02T14:25:46Z</time>
      </trkpt>
      <trkpt lat="46.42701" lon="5.98851">
        <ele>1213</ele>
        <time>2011-02-02T14:25:55Z</time>
      </trkpt>
      <trkpt lat="46.42696" lon="5.98839">
        <ele>1213</ele>
        <time>2011-02-02T14:26:05Z</time>
      </trkpt>
      <trkpt lat="46.4269" lon="5.98829">
        <ele>1213</ele>
        <time>2011-02-02T14:26:14Z</time>
      </trkpt>
      <trkpt lat="46.42683" lon="5.9882">
        <ele>1213</ele>
        <time>2011-02-02T14:26:23Z</time>
      </trkpt>
      <trkpt lat="46.42678" lon="5.98808">
        <ele>1213</ele>
        <time>2011-02-02T14:26:36Z</time>
      </trkpt>
      <trkpt lat="46.42672" lon="5.98796">
        <ele>1207</ele>
        <time>2011-02-02T14:26:48Z</time>
      </trkpt>
      <trkpt lat="46.42665" lon="5.98786">
        <ele>1207</ele>
        <time>2011-02-02T14:26:58Z</time>
      </trkpt>
      <trkpt lat="46.42658" lon="5.98777">
        <ele>1207</ele>
        <time>2011-02-02T14:27:09Z</time>
      </trkpt>
      <trkpt lat="46.42651" lon="5.98769">
        <ele>1207</ele>
        <time>2011-02-02T14:27:21Z</time>
      </trkpt>
      <trkpt lat="46.42644" lon="5.98759">
        <ele>1207</ele>
        <time>2011-02-02T14:27:30Z</time>
      </trkpt>
      <trkpt lat="46.42636" lon="5.98751">
        <ele>1207</ele>
        <time>2011-02-02T14:27:39Z</time>
      </trkpt>
      <trkpt lat="46.42629" lon="5.98742">
        <ele>1207</ele>
        <time>2011-02-02T14:27:49Z</time>
      </trkpt>
      <trkpt lat="46.42621" lon="5.98732">
        <ele>1207</ele>
        <time>2011-02-02T14:27:56Z</time>
      </trkpt>
      <trkpt lat="46.42613" lon="5.98723">
        <ele>1207</ele>
        <time>2011-02-02T14:28:04Z</time>
      </trkpt>
      <trkpt lat="46.42605" lon="5.98717">
        <ele>1207</ele>
        <time>2011-02-02T14:28:12Z</time>
      </trkpt>
      <trkpt lat="46.42595" lon="5.98718">
        <ele>1207</ele>
        <time>2011-02-02T14:28:22Z</time>
      </trkpt>
      <trkpt lat="46.42586" lon="5.98722">
        <ele>1201</ele>
        <time>2011-02-02T14:28:30Z</time>
      </trkpt>
      <trkpt lat="46.42577" lon="5.98727">
        <ele>1201</ele>
        <time>2011-02-02T14:28:40Z</time>
      </trkpt>
      <trkpt lat="46.42568" lon="5.98733">
        <ele>1201</ele>
        <time>2011-02-02T14:28:57Z</time>
      </trkpt>
      <trkpt lat="46.42559" lon="5.98739">
        <ele>1201</ele>
        <time>2011-02-02T14:29:15Z</time>
      </trkpt>
      <trkpt lat="46.42549" lon="5.98738">
        <ele>1201</ele>
        <time>2011-02-02T14:29:25Z</time>
      </trkpt>
      <trkpt lat="46.42542" lon="5.98729">
        <ele>1213</ele>
        <time>2011-02-02T14:29:39Z</time>
      </trkpt>
      <trkpt lat="46.42535" lon="5.9872">
        <ele>1213</ele>
        <time>2011-02-02T14:29:46Z</time>
      </trkpt>
      <trkpt lat="46.42537" lon="5.98707">
        <ele>1213</ele>
        <time>2011-02-02T14:29:57Z</time>
      </trkpt>
      <trkpt lat="46.42536" lon="5.98692">
        <ele>1213</ele>
        <time>2011-02-02T14:30:09Z</time>
      </trkpt>
      <trkpt lat="46.42534" lon="5.98679">
        <ele>1206</ele>
        <time>2011-02-02T14:30:18Z</time>
      </trkpt>
      <trkpt lat="46.42528" lon="5.98667">
        <ele>1206</ele>
        <time>2011-02-02T14:30:29Z</time>
      </trkpt>
      <trkpt lat="46.42524" lon="5.98654">
        <ele>1206</ele>
        <time>2011-02-02T14:30:40Z</time>
      </trkpt>
      <trkpt lat="46.42521" lon="5.98641">
        <ele>1206</ele>
        <time>2011-02-02T14:30:51Z</time>
      </trkpt>
      <trkpt lat="46.42516" lon="5.98629">
        <ele>1206</ele>
        <time>2011-02-02T14:30:59Z</time>
      </trkpt>
      <trkpt lat="46.42509" lon="5.9862">
        <ele>1201</ele>
        <time>2011-02-02T14:31:04Z</time>
      </trkpt>
      <trkpt lat="46.42502" lon="5.9861">
        <ele>1201</ele>
        <time>2011-02-02T14:31:10Z</time>
      </trkpt>
      <trkpt lat="46.42501" lon="5.98596">
        <ele>1192</ele>
        <time>2011-02-02T14:31:20Z</time>
      </trkpt>
      <trkpt lat="46.42503" lon="5.98583">
        <ele>1180</ele>
        <time>2011-02-02T14:32:08Z</time>
      </trkpt>
      <trkpt lat="46.4251" lon="5.98573">
        <ele>1180</ele>
        <time>2011-02-02T14:32:58Z</time>
      </trkpt>
      <trkpt lat="46.42501" lon="5.98576">
        <ele>1173</ele>
        <time>2011-02-02T14:33:34Z</time>
      </trkpt>
      <trkpt lat="46.42505" lon="5.98564">
        <ele>1173</ele>
        <time>2011-02-02T14:34:01Z</time>
      </trkpt>
      <trkpt lat="46.42511" lon="5.98574">
        <ele>1173</ele>
        <time>2011-02-02T14:35:39Z</time>
      </trkpt>
      <trkpt lat="46.42503" lon="5.98567">
        <ele>1179</ele>
        <time>2011-02-02T14:37:34Z</time>
      </trkpt>
      <trkpt lat="46.42494" lon="5.98562">
        <ele>1179</ele>
        <time>2011-02-02T14:37:45Z</time>
      </trkpt>
      <trkpt lat="46.42487" lon="5.98551">
        <ele>1179</ele>
        <time>2011-02-02T14:37:55Z</time>
      </trkpt>
      <trkpt lat="46.42482" lon="5.98539">
        <ele>1179</ele>
        <time>2011-02-02T14:38:05Z</time>
      </trkpt>
      <trkpt lat="46.42478" lon="5.98526">
        <ele>1179</ele>
        <time>2011-02-02T14:38:13Z</time>
      </trkpt>
      <trkpt lat="46.42474" lon="5.98512">
        <ele>1179</ele>
        <time>2011-02-02T14:38:22Z</time>
      </trkpt>
      <trkpt lat="46.4247" lon="5.98499">
        <ele>1179</ele>
        <time>2011-02-02T14:38:30Z</time>
      </trkpt>
      <trkpt lat="46.42467" lon="5.98486">
        <ele>1179</ele>
        <time>2011-02-02T14:38:38Z</time>
      </trkpt>
      <trkpt lat="46.42465" lon="5.98474">
        <ele>1179</ele>
        <time>2011-02-02T14:38:46Z</time>
      </trkpt>
      <trkpt lat="46.42462" lon="5.9846">
        <ele>1179</ele>
        <time>2011-02-02T14:38:55Z</time>
      </trkpt>
      <trkpt lat="46.4246" lon="5.98446">
        <ele>1179</ele>
        <time>2011-02-02T14:39:05Z</time>
      </trkpt>
      <trkpt lat="46.42457" lon="5.98433">
        <ele>1179</ele>
        <time>2011-02-02T14:39:14Z</time>
      </trkpt>
      <trkpt lat="46.42455" lon="5.9842">
        <ele>1179</ele>
        <time>2011-02-02T14:39:22Z</time>
      </trkpt>
      <trkpt lat="46.42454" lon="5.98406">
        <ele>1179</ele>
        <time>2011-02-02T14:39:30Z</time>
      </trkpt>
      <trkpt lat="46.42453" lon="5.98392">
        <ele>1179</ele>
        <time>2011-02-02T14:39:38Z</time>
      </trkpt>
      <trkpt lat="46.42453" lon="5.98378">
        <ele>1179</ele>
        <time>2011-02-02T14:39:47Z</time>
      </trkpt>
      <trkpt lat="46.42452" lon="5.98363">
        <ele>1179</ele>
        <time>2011-02-02T14:39:56Z</time>
      </trkpt>
      <trkpt lat="46.42452" lon="5.98349">
        <ele>1179</ele>
        <time>2011-02-02T14:40:05Z</time>
      </trkpt>
      <trkpt lat="46.42449" lon="5.98336">
        <ele>1179</ele>
        <time>2011-02-02T14:40:13Z</time>
      </trkpt>
      <trkpt lat="46.42446" lon="5.98324">
        <ele>1179</ele>
        <time>2011-02-02T14:40:20Z</time>
      </trkpt>
      <trkpt lat="46.42441" lon="5.9831">
        <ele>1179</ele>
        <time>2011-02-02T14:40:28Z</time>
      </trkpt>
      <trkpt lat="46.42436" lon="5.983">
        <ele>1179</ele>
        <time>2011-02-02T14:40:35Z</time>
      </trkpt>
      <trkpt lat="46.42429" lon="5.9829">
        <ele>1179</ele>
        <time>2011-02-02T14:40:42Z</time>
      </trkpt>
      <trkpt lat="46.42423" lon="5.98279">
        <ele>1179</ele>
        <time>2011-02-02T14:40:51Z</time>
      </trkpt>
      <trkpt lat="46.42415" lon="5.98271">
        <ele>1179</ele>
        <time>2011-02-02T14:40:59Z</time>
      </trkpt>
      <trkpt lat="46.42407" lon="5.98265">
        <ele>1179</ele>
        <time>2011-02-02T14:41:07Z</time>
      </trkpt>
      <trkpt lat="46.42398" lon="5.98261">
        <ele>1179</ele>
        <time>2011-02-02T14:41:15Z</time>
      </trkpt>
      <trkpt lat="46.42389" lon="5.98257">
        <ele>1179</ele>
        <time>2011-02-02T14:41:23Z</time>
      </trkpt>
      <trkpt lat="46.4238" lon="5.98252">
        <ele>1179</ele>
        <time>2011-02-02T14:41:31Z</time>
      </trkpt>
      <trkpt lat="46.42372" lon="5.98244">
        <ele>1179</ele>
        <time>2011-02-02T14:41:39Z</time>
      </trkpt>
      <trkpt lat="46.42365" lon="5.98235">
        <ele>1179</ele>
        <time>2011-02-02T14:41:47Z</time>
      </trkpt>
      <trkpt lat="46.42357" lon="5.98227">
        <ele>1179</ele>
        <time>2011-02-02T14:41:55Z</time>
      </trkpt>
      <trkpt lat="46.4235" lon="5.98218">
        <ele>1179</ele>
        <time>2011-02-02T14:42:03Z</time>
      </trkpt>
      <trkpt lat="46.42344" lon="5.98208">
        <ele>1179</ele>
        <time>2011-02-02T14:42:11Z</time>
      </trkpt>
      <trkpt lat="46.42337" lon="5.98196">
        <ele>1179</ele>
        <time>2011-02-02T14:42:21Z</time>
      </trkpt>
      <trkpt lat="46.4233" lon="5.98188">
        <ele>1179</ele>
        <time>2011-02-02T14:42:30Z</time>
      </trkpt>
      <trkpt lat="46.42321" lon="5.98184">
        <ele>1179</ele>
        <time>2011-02-02T14:42:38Z</time>
      </trkpt>
      <trkpt lat="46.42312" lon="5.9818">
        <ele>1179</ele>
        <time>2011-02-02T14:42:45Z</time>
      </trkpt>
      <trkpt lat="46.42304" lon="5.98173">
        <ele>1179</ele>
        <time>2011-02-02T14:42:53Z</time>
      </trkpt>
      <trkpt lat="46.42295" lon="5.98167">
        <ele>1173</ele>
        <time>2011-02-02T14:43:02Z</time>
      </trkpt>
      <trkpt lat="46.42286" lon="5.98161">
        <ele>1173</ele>
        <time>2011-02-02T14:43:11Z</time>
      </trkpt>
      <trkpt lat="46.42277" lon="5.98154">
        <ele>1173</ele>
        <time>2011-02-02T14:43:21Z</time>
      </trkpt>
      <trkpt lat="46.42269" lon="5.98146">
        <ele>1173</ele>
        <time>2011-02-02T14:43:28Z</time>
      </trkpt>
      <trkpt lat="46.42262" lon="5.98137">
        <ele>1178</ele>
        <time>2011-02-02T14:43:36Z</time>
      </trkpt>
      <trkpt lat="46.42259" lon="5.98124">
        <ele>1178</ele>
        <time>2011-02-02T14:43:44Z</time>
      </trkpt>
      <trkpt lat="46.42255" lon="5.98112">
        <ele>1172</ele>
        <time>2011-02-02T14:43:52Z</time>
      </trkpt>
      <trkpt lat="46.42251" lon="5.98099">
        <ele>1172</ele>
        <time>2011-02-02T14:44:00Z</time>
      </trkpt>
      <trkpt lat="46.42247" lon="5.98087">
        <ele>1166</ele>
        <time>2011-02-02T14:44:11Z</time>
      </trkpt>
      <trkpt lat="46.42241" lon="5.98076">
        <ele>1166</ele>
        <time>2011-02-02T14:44:20Z</time>
      </trkpt>
      <trkpt lat="46.42236" lon="5.98064">
        <ele>1166</ele>
        <time>2011-02-02T14:44:30Z</time>
      </trkpt>
      <trkpt lat="46.42226" lon="5.98058">
        <ele>1166</ele>
        <time>2011-02-02T14:44:40Z</time>
      </trkpt>
      <trkpt lat="46.42218" lon="5.98054">
        <ele>1166</ele>
        <time>2011-02-02T14:44:49Z</time>
      </trkpt>
      <trkpt lat="46.42208" lon="5.98051">
        <ele>1160</ele>
        <time>2011-02-02T14:44:58Z</time>
      </trkpt>
      <trkpt lat="46.422" lon="5.98043">
        <ele>1160</ele>
        <time>2011-02-02T14:45:06Z</time>
      </trkpt>
      <trkpt lat="46.42194" lon="5.98032">
        <ele>1160</ele>
        <time>2011-02-02T14:45:13Z</time>
      </trkpt>
      <trkpt lat="46.4219" lon="5.98019">
        <ele>1160</ele>
        <time>2011-02-02T14:45:21Z</time>
      </trkpt>
      <trkpt lat="46.42187" lon="5.98006">
        <ele>1160</ele>
        <time>2011-02-02T14:45:29Z</time>
      </trkpt>
      <trkpt lat="46.42183" lon="5.97992">
        <ele>1160</ele>
        <time>2011-02-02T14:45:37Z</time>
      </trkpt>
      <trkpt lat="46.42178" lon="5.9798">
        <ele>1160</ele>
        <time>2011-02-02T14:45:45Z</time>
      </trkpt>
      <trkpt lat="46.42176" lon="5.97966">
        <ele>1160</ele>
        <time>2011-02-02T14:45:54Z</time>
      </trkpt>
      <trkpt lat="46.42173" lon="5.97954">
        <ele>1160</ele>
        <time>2011-02-02T14:46:02Z</time>
      </trkpt>
      <trkpt lat="46.42169" lon="5.97942">
        <ele>1165</ele>
        <time>2011-02-02T14:46:10Z</time>
      </trkpt>
      <trkpt lat="46.42164" lon="5.9793">
        <ele>1165</ele>
        <time>2011-02-02T14:46:18Z</time>
      </trkpt>
      <trkpt lat="46.42157" lon="5.9792">
        <ele>1165</ele>
        <time>2011-02-02T14:46:26Z</time>
      </trkpt>
      <trkpt lat="46.4215" lon="5.97911">
        <ele>1165</ele>
        <time>2011-02-02T14:46:34Z</time>
      </trkpt>
      <trkpt lat="46.42142" lon="5.97903">
        <ele>1165</ele>
        <time>2011-02-02T14:46:42Z</time>
      </trkpt>
      <trkpt lat="46.42135" lon="5.97894">
        <ele>1165</ele>
        <time>2011-02-02T14:46:50Z</time>
      </trkpt>
      <trkpt lat="46.42128" lon="5.97885">
        <ele>1165</ele>
        <time>2011-02-02T14:46:58Z</time>
      </trkpt>
      <trkpt lat="46.42121" lon="5.97876">
        <ele>1165</ele>
        <time>2011-02-02T14:47:06Z</time>
      </trkpt>
      <trkpt lat="46.42115" lon="5.97865">
        <ele>1165</ele>
        <time>2011-02-02T14:47:15Z</time>
      </trkpt>
      <trkpt lat="46.42108" lon="5.97855">
        <ele>1165</ele>
        <time>2011-02-02T14:47:25Z</time>
      </trkpt>
      <trkpt lat="46.42101" lon="5.97846">
        <ele>1165</ele>
        <time>2011-02-02T14:47:35Z</time>
      </trkpt>
      <trkpt lat="46.42094" lon="5.97836">
        <ele>1165</ele>
        <time>2011-02-02T14:47:46Z</time>
      </trkpt>
      <trkpt lat="46.42086" lon="5.97827">
        <ele>1165</ele>
        <time>2011-02-02T14:47:56Z</time>
      </trkpt>
      <trkpt lat="46.42078" lon="5.97818">
        <ele>1170</ele>
        <time>2011-02-02T14:48:06Z</time>
      </trkpt>
      <trkpt lat="46.42072" lon="5.97807">
        <ele>1170</ele>
        <time>2011-02-02T14:48:16Z</time>
      </trkpt>
      <trkpt lat="46.42068" lon="5.97796">
        <ele>1170</ele>
        <time>2011-02-02T14:48:27Z</time>
      </trkpt>
      <trkpt lat="46.42064" lon="5.97783">
        <ele>1170</ele>
        <time>2011-02-02T14:48:46Z</time>
      </trkpt>
      <trkpt lat="46.42059" lon="5.9777">
        <ele>1178</ele>
        <time>2011-02-02T14:48:55Z</time>
      </trkpt>
      <trkpt lat="46.42053" lon="5.9776">
        <ele>1178</ele>
        <time>2011-02-02T14:49:03Z</time>
      </trkpt>
      <trkpt lat="46.42049" lon="5.97748">
        <ele>1178</ele>
        <time>2011-02-02T14:49:10Z</time>
      </trkpt>
      <trkpt lat="46.42043" lon="5.97735">
        <ele>1178</ele>
        <time>2011-02-02T14:49:18Z</time>
      </trkpt>
      <trkpt lat="46.42037" lon="5.97725">
        <ele>1178</ele>
        <time>2011-02-02T14:49:26Z</time>
      </trkpt>
      <trkpt lat="46.42032" lon="5.97713">
        <ele>1178</ele>
        <time>2011-02-02T14:49:34Z</time>
      </trkpt>
      <trkpt lat="46.42026" lon="5.97702">
        <ele>1178</ele>
        <time>2011-02-02T14:49:42Z</time>
      </trkpt>
      <trkpt lat="46.42021" lon="5.9769">
        <ele>1178</ele>
        <time>2011-02-02T14:49:51Z</time>
      </trkpt>
      <trkpt lat="46.42014" lon="5.97679">
        <ele>1178</ele>
        <time>2011-02-02T14:49:59Z</time>
      </trkpt>
      <trkpt lat="46.42008" lon="5.97667">
        <ele>1178</ele>
        <time>2011-02-02T14:50:08Z</time>
      </trkpt>
      <trkpt lat="46.42001" lon="5.97658">
        <ele>1178</ele>
        <time>2011-02-02T14:50:16Z</time>
      </trkpt>
      <trkpt lat="46.41993" lon="5.97648">
        <ele>1178</ele>
        <time>2011-02-02T14:50:25Z</time>
      </trkpt>
      <trkpt lat="46.41986" lon="5.97639">
        <ele>1178</ele>
        <time>2011-02-02T14:50:37Z</time>
      </trkpt>
      <trkpt lat="46.41979" lon="5.97631">
        <ele>1166</ele>
        <time>2011-02-02T14:51:30Z</time>
      </trkpt>
      <trkpt lat="46.41988" lon="5.97631">
        <ele>1166</ele>
        <time>2011-02-02T14:52:24Z</time>
      </trkpt>
      <trkpt lat="46.41979" lon="5.97634">
        <ele>1171</ele>
        <time>2011-02-02T14:53:01Z</time>
      </trkpt>
      <trkpt lat="46.41986" lon="5.97625">
        <ele>1171</ele>
        <time>2011-02-02T14:54:34Z</time>
      </trkpt>
      <trkpt lat="46.41978" lon="5.97618">
        <ele>1171</ele>
        <time>2011-02-02T14:56:41Z</time>
      </trkpt>
      <trkpt lat="46.4197" lon="5.9761">
        <ele>1171</ele>
        <time>2011-02-02T14:56:49Z</time>
      </trkpt>
      <trkpt lat="46.41963" lon="5.976">
        <ele>1177</ele>
        <time>2011-02-02T14:56:57Z</time>
      </trkpt>
      <trkpt lat="46.4196" lon="5.97586">
        <ele>1177</ele>
        <time>2011-02-02T14:57:06Z</time>
      </trkpt>
      <trkpt lat="46.41954" lon="5.97575">
        <ele>1169</ele>
        <time>2011-02-02T14:57:15Z</time>
      </trkpt>
      <trkpt lat="46.41947" lon="5.97566">
        <ele>1169</ele>
        <time>2011-02-02T14:57:23Z</time>
      </trkpt>
      <trkpt lat="46.41941" lon="5.97556">
        <ele>1169</ele>
        <time>2011-02-02T14:57:30Z</time>
      </trkpt>
      <trkpt lat="46.41935" lon="5.97545">
        <ele>1169</ele>
        <time>2011-02-02T14:57:38Z</time>
      </trkpt>
      <trkpt lat="46.41931" lon="5.97532">
        <ele>1169</ele>
        <time>2011-02-02T14:57:47Z</time>
      </trkpt>
      <trkpt lat="46.41926" lon="5.97519">
        <ele>1169</ele>
        <time>2011-02-02T14:57:56Z</time>
      </trkpt>
      <trkpt lat="46.41921" lon="5.97507">
        <ele>1169</ele>
        <time>2011-02-02T14:58:05Z</time>
      </trkpt>
      <trkpt lat="46.41918" lon="5.97495">
        <ele>1169</ele>
        <time>2011-02-02T14:58:13Z</time>
      </trkpt>
      <trkpt lat="46.41914" lon="5.97482">
        <ele>1169</ele>
        <time>2011-02-02T14:58:22Z</time>
      </trkpt>
      <trkpt lat="46.41911" lon="5.97469">
        <ele>1169</ele>
        <time>2011-02-02T14:58:31Z</time>
      </trkpt>
      <trkpt lat="46.41909" lon="5.97456">
        <ele>1169</ele>
        <time>2011-02-02T14:58:39Z</time>
      </trkpt>
      <trkpt lat="46.41906" lon="5.97443">
        <ele>1169</ele>
        <time>2011-02-02T14:58:47Z</time>
      </trkpt>
      <trkpt lat="46.41902" lon="5.9743">
        <ele>1169</ele>
        <time>2011-02-02T14:58:56Z</time>
      </trkpt>
      <trkpt lat="46.41899" lon="5.97417">
        <ele>1169</ele>
        <time>2011-02-02T14:59:04Z</time>
      </trkpt>
      <trkpt lat="46.41895" lon="5.97405">
        <ele>1169</ele>
        <time>2011-02-02T14:59:12Z</time>
      </trkpt>
      <trkpt lat="46.41891" lon="5.97392">
        <ele>1169</ele>
        <time>2011-02-02T14:59:20Z</time>
      </trkpt>
      <trkpt lat="46.41887" lon="5.9738">
        <ele>1169</ele>
        <time>2011-02-02T14:59:28Z</time>
      </trkpt>
      <trkpt lat="46.41885" lon="5.97367">
        <ele>1169</ele>
        <time>2011-02-02T14:59:37Z</time>
      </trkpt>
      <trkpt lat="46.4188" lon="5.97355">
        <ele>1169</ele>
        <time>2011-02-02T14:59:45Z</time>
      </trkpt>
      <trkpt lat="46.41875" lon="5.97344">
        <ele>1169</ele>
        <time>2011-02-02T14:59:53Z</time>
      </trkpt>
      <trkpt lat="46.41871" lon="5.97332">
        <ele>1169</ele>
        <time>2011-02-02T15:00:01Z</time>
      </trkpt>
      <trkpt lat="46.41865" lon="5.97321">
        <ele>1169</ele>
        <time>2011-02-02T15:00:09Z</time>
      </trkpt>
      <trkpt lat="46.41858" lon="5.97312">
        <ele>1169</ele>
        <time>2011-02-02T15:00:17Z</time>
      </trkpt>
      <trkpt lat="46.41853" lon="5.97302">
        <ele>1169</ele>
        <time>2011-02-02T15:00:25Z</time>
      </trkpt>
      <trkpt lat="46.41847" lon="5.97291">
        <ele>1164</ele>
        <time>2011-02-02T15:00:41Z</time>
      </trkpt>
      <trkpt lat="46.41839" lon="5.97295">
        <ele>1164</ele>
        <time>2011-02-02T15:01:41Z</time>
      </trkpt>
      <trkpt lat="46.41831" lon="5.97302">
        <ele>1164</ele>
        <time>2011-02-02T15:01:51Z</time>
      </trkpt>
      <trkpt lat="46.41821" lon="5.97302">
        <ele>1164</ele>
        <time>2011-02-02T15:02:01Z</time>
      </trkpt>
      <trkpt lat="46.41811" lon="5.97302">
        <ele>1164</ele>
        <time>2011-02-02T15:02:10Z</time>
      </trkpt>
      <trkpt lat="46.41802" lon="5.97301">
        <ele>1164</ele>
        <time>2011-02-02T15:02:19Z</time>
      </trkpt>
      <trkpt lat="46.41793" lon="5.97299">
        <ele>1164</ele>
        <time>2011-02-02T15:02:27Z</time>
      </trkpt>
      <trkpt lat="46.41783" lon="5.97296">
        <ele>1164</ele>
        <time>2011-02-02T15:02:35Z</time>
      </trkpt>
      <trkpt lat="46.41775" lon="5.9729">
        <ele>1164</ele>
        <time>2011-02-02T15:02:42Z</time>
      </trkpt>
      <trkpt lat="46.41767" lon="5.97282">
        <ele>1164</ele>
        <time>2011-02-02T15:02:49Z</time>
      </trkpt>
      <trkpt lat="46.41762" lon="5.97271">
        <ele>1164</ele>
        <time>2011-02-02T15:02:59Z</time>
      </trkpt>
      <trkpt lat="46.41755" lon="5.97261">
        <ele>1171</ele>
        <time>2011-02-02T15:03:09Z</time>
      </trkpt>
      <trkpt lat="46.41747" lon="5.97254">
        <ele>1171</ele>
        <time>2011-02-02T15:03:17Z</time>
      </trkpt>
      <trkpt lat="46.41739" lon="5.97248">
        <ele>1171</ele>
        <time>2011-02-02T15:03:26Z</time>
      </trkpt>
      <trkpt lat="46.4173" lon="5.97242">
        <ele>1166</ele>
        <time>2011-02-02T15:03:34Z</time>
      </trkpt>
      <trkpt lat="46.41721" lon="5.97239">
        <ele>1166</ele>
        <time>2011-02-02T15:03:42Z</time>
      </trkpt>
      <trkpt lat="46.41712" lon="5.97232">
        <ele>1166</ele>
        <time>2011-02-02T15:03:50Z</time>
      </trkpt>
      <trkpt lat="46.41704" lon="5.97229">
        <ele>1160</ele>
        <time>2011-02-02T15:03:58Z</time>
      </trkpt>
      <trkpt lat="46.41695" lon="5.97224">
        <ele>1160</ele>
        <time>2011-02-02T15:04:06Z</time>
      </trkpt>
      <trkpt lat="46.41685" lon="5.97222">
        <ele>1160</ele>
        <time>2011-02-02T15:04:15Z</time>
      </trkpt>
      <trkpt lat="46.41676" lon="5.97217">
        <ele>1160</ele>
        <time>2011-02-02T15:04:22Z</time>
      </trkpt>
      <trkpt lat="46.41668" lon="5.97213">
        <ele>1160</ele>
        <time>2011-02-02T15:04:30Z</time>
      </trkpt>
      <trkpt lat="46.41659" lon="5.97206">
        <ele>1160</ele>
        <time>2011-02-02T15:04:38Z</time>
      </trkpt>
      <trkpt lat="46.4165" lon="5.97201">
        <ele>1160</ele>
        <time>2011-02-02T15:04:47Z</time>
      </trkpt>
      <trkpt lat="46.41642" lon="5.97195">
        <ele>1160</ele>
        <time>2011-02-02T15:04:55Z</time>
      </trkpt>
      <trkpt lat="46.41633" lon="5.97189">
        <ele>1160</ele>
        <time>2011-02-02T15:05:02Z</time>
      </trkpt>
      <trkpt lat="46.41624" lon="5.97185">
        <ele>1160</ele>
        <time>2011-02-02T15:05:09Z</time>
      </trkpt>
      <trkpt lat="46.41616" lon="5.97178">
        <ele>1160</ele>
        <time>2011-02-02T15:05:17Z</time>
      </trkpt>
      <trkpt lat="46.41606" lon="5.97172">
        <ele>1160</ele>
        <time>2011-02-02T15:05:25Z</time>
      </trkpt>
      <trkpt lat="46.41598" lon="5.97166">
        <ele>1160</ele>
        <time>2011-02-02T15:05:33Z</time>
      </trkpt>
      <trkpt lat="46.41588" lon="5.97161">
        <ele>1160</ele>
        <time>2011-02-02T15:05:41Z</time>
      </trkpt>
      <trkpt lat="46.4158" lon="5.97156">
        <ele>1160</ele>
        <time>2011-02-02T15:05:49Z</time>
      </trkpt>
      <trkpt lat="46.41571" lon="5.9715">
        <ele>1160</ele>
        <time>2011-02-02T15:05:56Z</time>
      </trkpt>
      <trkpt lat="46.41563" lon="5.97143">
        <ele>1160</ele>
        <time>2011-02-02T15:06:04Z</time>
      </trkpt>
      <trkpt lat="46.41554" lon="5.97137">
        <ele>1160</ele>
        <time>2011-02-02T15:06:11Z</time>
      </trkpt>
      <trkpt lat="46.41546" lon="5.97131">
        <ele>1160</ele>
        <time>2011-02-02T15:06:18Z</time>
      </trkpt>
      <trkpt lat="46.41538" lon="5.97123">
        <ele>1160</ele>
        <time>2011-02-02T15:06:26Z</time>
      </trkpt>
      <trkpt lat="46.41529" lon="5.97116">
        <ele>1160</ele>
        <time>2011-02-02T15:06:34Z</time>
      </trkpt>
      <trkpt lat="46.41521" lon="5.97108">
        <ele>1160</ele>
        <time>2011-02-02T15:06:42Z</time>
      </trkpt>
      <trkpt lat="46.41513" lon="5.971">
        <ele>1160</ele>
        <time>2011-02-02T15:06:50Z</time>
      </trkpt>
      <trkpt lat="46.41505" lon="5.97094">
        <ele>1160</ele>
        <time>2011-02-02T15:06:58Z</time>
      </trkpt>
      <trkpt lat="46.41497" lon="5.97088">
        <ele>1160</ele>
        <time>2011-02-02T15:07:07Z</time>
      </trkpt>
      <trkpt lat="46.41488" lon="5.97081">
        <ele>1160</ele>
        <time>2011-02-02T15:07:16Z</time>
      </trkpt>
      <trkpt lat="46.4148" lon="5.97077">
        <ele>1160</ele>
        <time>2011-02-02T15:07:25Z</time>
      </trkpt>
      <trkpt lat="46.41471" lon="5.9707">
        <ele>1160</ele>
        <time>2011-02-02T15:07:33Z</time>
      </trkpt>
      <trkpt lat="46.41463" lon="5.97064">
        <ele>1166</ele>
        <time>2011-02-02T15:07:42Z</time>
      </trkpt>
      <trkpt lat="46.41455" lon="5.97056">
        <ele>1166</ele>
        <time>2011-02-02T15:07:51Z</time>
      </trkpt>
      <trkpt lat="46.41446" lon="5.97052">
        <ele>1166</ele>
        <time>2011-02-02T15:07:59Z</time>
      </trkpt>
      <trkpt lat="46.41437" lon="5.97046">
        <ele>1166</ele>
        <time>2011-02-02T15:08:08Z</time>
      </trkpt>
      <trkpt lat="46.41428" lon="5.97043">
        <ele>1166</ele>
        <time>2011-02-02T15:08:16Z</time>
      </trkpt>
      <trkpt lat="46.41419" lon="5.97037">
        <ele>1166</ele>
        <time>2011-02-02T15:08:24Z</time>
      </trkpt>
      <trkpt lat="46.4141" lon="5.97034">
        <ele>1166</ele>
        <time>2011-02-02T15:08:32Z</time>
      </trkpt>
      <trkpt lat="46.41401" lon="5.97029">
        <ele>1166</ele>
        <time>2011-02-02T15:08:40Z</time>
      </trkpt>
      <trkpt lat="46.41392" lon="5.97023">
        <ele>1166</ele>
        <time>2011-02-02T15:08:49Z</time>
      </trkpt>
      <trkpt lat="46.41383" lon="5.97017">
        <ele>1171</ele>
        <time>2011-02-02T15:08:57Z</time>
      </trkpt>
      <trkpt lat="46.41375" lon="5.9701">
        <ele>1171</ele>
        <time>2011-02-02T15:09:05Z</time>
      </trkpt>
      <trkpt lat="46.41366" lon="5.97003">
        <ele>1171</ele>
        <time>2011-02-02T15:09:13Z</time>
      </trkpt>
      <trkpt lat="46.41357" lon="5.96998">
        <ele>1171</ele>
        <time>2011-02-02T15:09:21Z</time>
      </trkpt>
      <trkpt lat="46.41348" lon="5.96994">
        <ele>1171</ele>
        <time>2011-02-02T15:09:28Z</time>
      </trkpt>
      <trkpt lat="46.41338" lon="5.96993">
        <ele>1171</ele>
        <time>2011-02-02T15:09:36Z</time>
      </trkpt>
      <trkpt lat="46.4133" lon="5.97">
        <ele>1180</ele>
        <time>2011-02-02T15:09:50Z</time>
      </trkpt>
      <trkpt lat="46.41322" lon="5.97005">
        <ele>1173</ele>
        <time>2011-02-02T15:10:11Z</time>
      </trkpt>
      <trkpt lat="46.41318" lon="5.97018">
        <ele>1173</ele>
        <time>2011-02-02T15:10:23Z</time>
      </trkpt>
      <trkpt lat="46.41318" lon="5.97031">
        <ele>1184</ele>
        <time>2011-02-02T15:10:36Z</time>
      </trkpt>
      <trkpt lat="46.4132" lon="5.97044">
        <ele>1196</ele>
        <time>2011-02-02T15:10:50Z</time>
      </trkpt>
      <trkpt lat="46.41316" lon="5.97055">
        <ele>1187</ele>
        <time>2011-02-02T15:11:28Z</time>
      </trkpt>
      <trkpt lat="46.41313" lon="5.97043">
        <ele>1196</ele>
        <time>2011-02-02T15:11:46Z</time>
      </trkpt>
      <trkpt lat="46.41305" lon="5.97036">
        <ele>1196</ele>
        <time>2011-02-02T15:11:55Z</time>
      </trkpt>
      <trkpt lat="46.41297" lon="5.97029">
        <ele>1196</ele>
        <time>2011-02-02T15:12:03Z</time>
      </trkpt>
      <trkpt lat="46.41288" lon="5.97024">
        <ele>1196</ele>
        <time>2011-02-02T15:12:11Z</time>
      </trkpt>
      <trkpt lat="46.4128" lon="5.97016">
        <ele>1196</ele>
        <time>2011-02-02T15:12:22Z</time>
      </trkpt>
      <trkpt lat="46.41273" lon="5.97008">
        <ele>1196</ele>
        <time>2011-02-02T15:12:30Z</time>
      </trkpt>
      <trkpt lat="46.41267" lon="5.96997">
        <ele>1196</ele>
        <time>2011-02-02T15:12:40Z</time>
      </trkpt>
      <trkpt lat="46.41258" lon="5.96991">
        <ele>1196</ele>
        <time>2011-02-02T15:12:48Z</time>
      </trkpt>
      <trkpt lat="46.4125" lon="5.96984">
        <ele>1196</ele>
        <time>2011-02-02T15:12:56Z</time>
      </trkpt>
      <trkpt lat="46.41242" lon="5.96975">
        <ele>1203</ele>
        <time>2011-02-02T15:13:04Z</time>
      </trkpt>
      <trkpt lat="46.41235" lon="5.96966">
        <ele>1203</ele>
        <time>2011-02-02T15:13:14Z</time>
      </trkpt>
      <trkpt lat="46.41226" lon="5.9696">
        <ele>1203</ele>
        <time>2011-02-02T15:13:20Z</time>
      </trkpt>
      <trkpt lat="46.41218" lon="5.96954">
        <ele>1203</ele>
        <time>2011-02-02T15:13:27Z</time>
      </trkpt>
      <trkpt lat="46.41209" lon="5.96949">
        <ele>1203</ele>
        <time>2011-02-02T15:13:36Z</time>
      </trkpt>
      <trkpt lat="46.41207" lon="5.96937">
        <ele>1197</ele>
        <time>2011-02-02T15:13:47Z</time>
      </trkpt>
      <trkpt lat="46.41199" lon="5.96929">
        <ele>1197</ele>
        <time>2011-02-02T15:13:56Z</time>
      </trkpt>
      <trkpt lat="46.41191" lon="5.96921">
        <ele>1197</ele>
        <time>2011-02-02T15:14:03Z</time>
      </trkpt>
      <trkpt lat="46.41182" lon="5.96913">
        <ele>1197</ele>
        <time>2011-02-02T15:14:11Z</time>
      </trkpt>
      <trkpt lat="46.41176" lon="5.96902">
        <ele>1197</ele>
        <time>2011-02-02T15:14:19Z</time>
      </trkpt>
      <trkpt lat="46.41169" lon="5.96893">
        <ele>1197</ele>
        <time>2011-02-02T15:14:27Z</time>
      </trkpt>
      <trkpt lat="46.41162" lon="5.96883">
        <ele>1197</ele>
        <time>2011-02-02T15:14:35Z</time>
      </trkpt>
      <trkpt lat="46.41156" lon="5.96872">
        <ele>1197</ele>
        <time>2011-02-02T15:14:45Z</time>
      </trkpt>
      <trkpt lat="46.41163" lon="5.96862">
        <ele>1197</ele>
        <time>2011-02-02T15:15:17Z</time>
      </trkpt>
      <trkpt lat="46.41153" lon="5.96866">
        <ele>1197</ele>
        <time>2011-02-02T15:15:39Z</time>
      </trkpt>
      <trkpt lat="46.41149" lon="5.96852">
        <ele>1197</ele>
        <time>2011-02-02T15:16:50Z</time>
      </trkpt>
      <trkpt lat="46.4114" lon="5.96844">
        <ele>1197</ele>
        <time>2011-02-02T15:16:58Z</time>
      </trkpt>
      <trkpt lat="46.41132" lon="5.96836">
        <ele>1197</ele>
        <time>2011-02-02T15:17:05Z</time>
      </trkpt>
      <trkpt lat="46.41125" lon="5.96826">
        <ele>1197</ele>
        <time>2011-02-02T15:17:14Z</time>
      </trkpt>
      <trkpt lat="46.41115" lon="5.96825">
        <ele>1197</ele>
        <time>2011-02-02T15:17:20Z</time>
      </trkpt>
      <trkpt lat="46.41107" lon="5.96816">
        <ele>1197</ele>
        <time>2011-02-02T15:17:28Z</time>
      </trkpt>
      <trkpt lat="46.411" lon="5.96807">
        <ele>1197</ele>
        <time>2011-02-02T15:17:35Z</time>
      </trkpt>
      <trkpt lat="46.41096" lon="5.96795">
        <ele>1197</ele>
        <time>2011-02-02T15:17:44Z</time>
      </trkpt>
      <trkpt lat="46.41087" lon="5.96786">
        <ele>1197</ele>
        <time>2011-02-02T15:17:52Z</time>
      </trkpt>
      <trkpt lat="46.41083" lon="5.96773">
        <ele>1197</ele>
        <time>2011-02-02T15:18:01Z</time>
      </trkpt>
      <trkpt lat="46.41075" lon="5.96767">
        <ele>1197</ele>
        <time>2011-02-02T15:18:08Z</time>
      </trkpt>
      <trkpt lat="46.41066" lon="5.96759">
        <ele>1197</ele>
        <time>2011-02-02T15:18:17Z</time>
      </trkpt>
      <trkpt lat="46.41058" lon="5.96753">
        <ele>1191</ele>
        <time>2011-02-02T15:18:26Z</time>
      </trkpt>
      <trkpt lat="46.4105" lon="5.96746">
        <ele>1191</ele>
        <time>2011-02-02T15:18:35Z</time>
      </trkpt>
      <trkpt lat="46.41042" lon="5.96737">
        <ele>1191</ele>
        <time>2011-02-02T15:18:46Z</time>
      </trkpt>
      <trkpt lat="46.41035" lon="5.96727">
        <ele>1203</ele>
        <time>2011-02-02T15:19:00Z</time>
      </trkpt>
      <trkpt lat="46.41025" lon="5.9672">
        <ele>1203</ele>
        <time>2011-02-02T15:19:07Z</time>
      </trkpt>
      <trkpt lat="46.41018" lon="5.96711">
        <ele>1203</ele>
        <time>2011-02-02T15:19:14Z</time>
      </trkpt>
      <trkpt lat="46.41012" lon="5.96701">
        <ele>1203</ele>
        <time>2011-02-02T15:19:22Z</time>
      </trkpt>
      <trkpt lat="46.41003" lon="5.96694">
        <ele>1203</ele>
        <time>2011-02-02T15:19:29Z</time>
      </trkpt>
      <trkpt lat="46.40994" lon="5.96686">
        <ele>1203</ele>
        <time>2011-02-02T15:19:38Z</time>
      </trkpt>
      <trkpt lat="46.40987" lon="5.96677">
        <ele>1203</ele>
        <time>2011-02-02T15:19:46Z</time>
      </trkpt>
      <trkpt lat="46.40978" lon="5.96672">
        <ele>1203</ele>
        <time>2011-02-02T15:19:53Z</time>
      </trkpt>
      <trkpt lat="46.4097" lon="5.96663">
        <ele>1203</ele>
        <time>2011-02-02T15:20:02Z</time>
      </trkpt>
      <trkpt lat="46.40961" lon="5.96657">
        <ele>1203</ele>
        <time>2011-02-02T15:20:09Z</time>
      </trkpt>
      <trkpt lat="46.40953" lon="5.96651">
        <ele>1195</ele>
        <time>2011-02-02T15:20:15Z</time>
      </trkpt>
      <trkpt lat="46.40944" lon="5.96647">
        <ele>1195</ele>
        <time>2011-02-02T15:20:21Z</time>
      </trkpt>
      <trkpt lat="46.40936" lon="5.9664">
        <ele>1195</ele>
        <time>2011-02-02T15:20:29Z</time>
      </trkpt>
      <trkpt lat="46.40928" lon="5.96632">
        <ele>1195</ele>
        <time>2011-02-02T15:20:41Z</time>
      </trkpt>
      <trkpt lat="46.40919" lon="5.96629">
        <ele>1195</ele>
        <time>2011-02-02T15:20:48Z</time>
      </trkpt>
      <trkpt lat="46.40913" lon="5.96618">
        <ele>1195</ele>
        <time>2011-02-02T15:20:56Z</time>
      </trkpt>
      <trkpt lat="46.40904" lon="5.96612">
        <ele>1188</ele>
        <time>2011-02-02T15:21:04Z</time>
      </trkpt>
      <trkpt lat="46.40894" lon="5.96608">
        <ele>1188</ele>
        <time>2011-02-02T15:21:13Z</time>
      </trkpt>
      <trkpt lat="46.40886" lon="5.96603">
        <ele>1188</ele>
        <time>2011-02-02T15:21:20Z</time>
      </trkpt>
      <trkpt lat="46.40877" lon="5.96599">
        <ele>1188</ele>
        <time>2011-02-02T15:21:27Z</time>
      </trkpt>
      <trkpt lat="46.40868" lon="5.96594">
        <ele>1188</ele>
        <time>2011-02-02T15:21:34Z</time>
      </trkpt>
      <trkpt lat="46.40859" lon="5.96589">
        <ele>1188</ele>
        <time>2011-02-02T15:21:41Z</time>
      </trkpt>
      <trkpt lat="46.40851" lon="5.96585">
        <ele>1188</ele>
        <time>2011-02-02T15:21:48Z</time>
      </trkpt>
      <trkpt lat="46.40843" lon="5.96578">
        <ele>1188</ele>
        <time>2011-02-02T15:21:56Z</time>
      </trkpt>
      <trkpt lat="46.40834" lon="5.96573">
        <ele>1188</ele>
        <time>2011-02-02T15:22:04Z</time>
      </trkpt>
      <trkpt lat="46.40825" lon="5.9657">
        <ele>1188</ele>
        <time>2011-02-02T15:22:14Z</time>
      </trkpt>
      <trkpt lat="46.40816" lon="5.96564">
        <ele>1181</ele>
        <time>2011-02-02T15:23:33Z</time>
      </trkpt>
      <trkpt lat="46.40807" lon="5.96561">
        <ele>1181</ele>
        <time>2011-02-02T15:23:41Z</time>
      </trkpt>
      <trkpt lat="46.40797" lon="5.96558">
        <ele>1181</ele>
        <time>2011-02-02T15:23:49Z</time>
      </trkpt>
      <trkpt lat="46.40789" lon="5.96552">
        <ele>1181</ele>
        <time>2011-02-02T15:23:57Z</time>
      </trkpt>
      <trkpt lat="46.40779" lon="5.96547">
        <ele>1181</ele>
        <time>2011-02-02T15:24:05Z</time>
      </trkpt>
      <trkpt lat="46.4077" lon="5.96542">
        <ele>1188</ele>
        <time>2011-02-02T15:24:15Z</time>
      </trkpt>
      <trkpt lat="46.40761" lon="5.96538">
        <ele>1188</ele>
        <time>2011-02-02T15:24:26Z</time>
      </trkpt>
      <trkpt lat="46.40753" lon="5.96533">
        <ele>1194</ele>
        <time>2011-02-02T15:24:33Z</time>
      </trkpt>
      <trkpt lat="46.40743" lon="5.96528">
        <ele>1194</ele>
        <time>2011-02-02T15:24:39Z</time>
      </trkpt>
      <trkpt lat="46.40735" lon="5.96525">
        <ele>1194</ele>
        <time>2011-02-02T15:24:46Z</time>
      </trkpt>
      <trkpt lat="46.40725" lon="5.96519">
        <ele>1194</ele>
        <time>2011-02-02T15:24:55Z</time>
      </trkpt>
      <trkpt lat="46.40716" lon="5.96514">
        <ele>1194</ele>
        <time>2011-02-02T15:25:04Z</time>
      </trkpt>
      <trkpt lat="46.40705" lon="5.9651">
        <ele>1199</ele>
        <time>2011-02-02T15:25:11Z</time>
      </trkpt>
      <trkpt lat="46.40697" lon="5.96502">
        <ele>1191</ele>
        <time>2011-02-02T15:25:21Z</time>
      </trkpt>
      <trkpt lat="46.40688" lon="5.96497">
        <ele>1191</ele>
        <time>2011-02-02T15:25:30Z</time>
      </trkpt>
      <trkpt lat="46.40678" lon="5.96492">
        <ele>1191</ele>
        <time>2011-02-02T15:25:37Z</time>
      </trkpt>
      <trkpt lat="46.4067" lon="5.96485">
        <ele>1191</ele>
        <time>2011-02-02T15:25:43Z</time>
      </trkpt>
      <trkpt lat="46.40664" lon="5.96475">
        <ele>1191</ele>
        <time>2011-02-02T15:25:51Z</time>
      </trkpt>
      <trkpt lat="46.40658" lon="5.96487">
        <ele>1184</ele>
        <time>2011-02-02T15:26:57Z</time>
      </trkpt>
      <trkpt lat="46.40657" lon="5.965">
        <ele>1190</ele>
        <time>2011-02-02T15:27:12Z</time>
      </trkpt>
      <trkpt lat="46.40652" lon="5.96512">
        <ele>1190</ele>
        <time>2011-02-02T15:27:24Z</time>
      </trkpt>
      <trkpt lat="46.40651" lon="5.96525">
        <ele>1190</ele>
        <time>2011-02-02T15:27:34Z</time>
      </trkpt>
      <trkpt lat="46.40652" lon="5.96539">
        <ele>1196</ele>
        <time>2011-02-02T15:27:46Z</time>
      </trkpt>
      <trkpt lat="46.4065" lon="5.96552">
        <ele>1196</ele>
        <time>2011-02-02T15:27:57Z</time>
      </trkpt>
      <trkpt lat="46.40649" lon="5.96566">
        <ele>1204</ele>
        <time>2011-02-02T15:28:13Z</time>
      </trkpt>
      <trkpt lat="46.40651" lon="5.96579">
        <ele>1204</ele>
        <time>2011-02-02T15:28:28Z</time>
      </trkpt>
      <trkpt lat="46.40654" lon="5.96592">
        <ele>1204</ele>
        <time>2011-02-02T15:28:41Z</time>
      </trkpt>
      <trkpt lat="46.40655" lon="5.96605">
        <ele>1210</ele>
        <time>2011-02-02T15:28:54Z</time>
      </trkpt>
      <trkpt lat="46.40657" lon="5.96618">
        <ele>1215</ele>
        <time>2011-02-02T15:29:06Z</time>
      </trkpt>
      <trkpt lat="46.40654" lon="5.96631">
        <ele>1215</ele>
        <time>2011-02-02T15:29:22Z</time>
      </trkpt>
      <trkpt lat="46.40654" lon="5.96644">
        <ele>1215</ele>
        <time>2011-02-02T15:29:34Z</time>
      </trkpt>
      <trkpt lat="46.40656" lon="5.96657">
        <ele>1215</ele>
        <time>2011-02-02T15:29:46Z</time>
      </trkpt>
      <trkpt lat="46.40654" lon="5.96671">
        <ele>1215</ele>
        <time>2011-02-02T15:29:56Z</time>
      </trkpt>
      <trkpt lat="46.40654" lon="5.96685">
        <ele>1215</ele>
        <time>2011-02-02T15:30:07Z</time>
      </trkpt>
      <trkpt lat="46.40656" lon="5.967">
        <ele>1215</ele>
        <time>2011-02-02T15:30:16Z</time>
      </trkpt>
      <trkpt lat="46.40657" lon="5.96713">
        <ele>1215</ele>
        <time>2011-02-02T15:30:26Z</time>
      </trkpt>
      <trkpt lat="46.40662" lon="5.96726">
        <ele>1215</ele>
        <time>2011-02-02T15:30:37Z</time>
      </trkpt>
      <trkpt lat="46.4067" lon="5.96734">
        <ele>1215</ele>
        <time>2011-02-02T15:30:50Z</time>
      </trkpt>
      <trkpt lat="46.40679" lon="5.96738">
        <ele>1215</ele>
        <time>2011-02-02T15:31:01Z</time>
      </trkpt>
      <trkpt lat="46.40686" lon="5.96746">
        <ele>1215</ele>
        <time>2011-02-02T15:31:12Z</time>
      </trkpt>
      <trkpt lat="46.40693" lon="5.96754">
        <ele>1215</ele>
        <time>2011-02-02T15:31:22Z</time>
      </trkpt>
      <trkpt lat="46.40701" lon="5.96763">
        <ele>1215</ele>
        <time>2011-02-02T15:31:32Z</time>
      </trkpt>
      <trkpt lat="46.40708" lon="5.96772">
        <ele>1215</ele>
        <time>2011-02-02T15:31:42Z</time>
      </trkpt>
      <trkpt lat="46.40715" lon="5.96781">
        <ele>1215</ele>
        <time>2011-02-02T15:31:50Z</time>
      </trkpt>
      <trkpt lat="46.40722" lon="5.96791">
        <ele>1215</ele>
        <time>2011-02-02T15:32:00Z</time>
      </trkpt>
      <trkpt lat="46.40727" lon="5.96803">
        <ele>1215</ele>
        <time>2011-02-02T15:32:09Z</time>
      </trkpt>
      <trkpt lat="46.40732" lon="5.96816">
        <ele>1229</ele>
        <time>2011-02-02T15:32:23Z</time>
      </trkpt>
      <trkpt lat="46.40732" lon="5.9683">
        <ele>1229</ele>
        <time>2011-02-02T15:32:33Z</time>
      </trkpt>
      <trkpt lat="46.40731" lon="5.96844">
        <ele>1235</ele>
        <time>2011-02-02T15:32:44Z</time>
      </trkpt>
      <trkpt lat="46.40726" lon="5.96856">
        <ele>1235</ele>
        <time>2011-02-02T15:32:54Z</time>
      </trkpt>
      <trkpt lat="46.40721" lon="5.96869">
        <ele>1235</ele>
        <time>2011-02-02T15:33:04Z</time>
      </trkpt>
      <trkpt lat="46.40713" lon="5.96878">
        <ele>1235</ele>
        <time>2011-02-02T15:33:14Z</time>
      </trkpt>
      <trkpt lat="46.40707" lon="5.96887">
        <ele>1235</ele>
        <time>2011-02-02T15:33:24Z</time>
      </trkpt>
      <trkpt lat="46.40705" lon="5.969">
        <ele>1242</ele>
        <time>2011-02-02T15:33:38Z</time>
      </trkpt>
      <trkpt lat="46.40702" lon="5.96914">
        <ele>1242</ele>
        <time>2011-02-02T15:33:46Z</time>
      </trkpt>
      <trkpt lat="46.40703" lon="5.96928">
        <ele>1236</ele>
        <time>2011-02-02T15:33:56Z</time>
      </trkpt>
      <trkpt lat="46.40702" lon="5.96941">
        <ele>1236</ele>
        <time>2011-02-02T15:34:05Z</time>
      </trkpt>
      <trkpt lat="46.40703" lon="5.96955">
        <ele>1236</ele>
        <time>2011-02-02T15:34:15Z</time>
      </trkpt>
      <trkpt lat="46.40703" lon="5.96968">
        <ele>1236</ele>
        <time>2011-02-02T15:34:26Z</time>
      </trkpt>
      <trkpt lat="46.40707" lon="5.96981">
        <ele>1246</ele>
        <time>2011-02-02T15:34:37Z</time>
      </trkpt>
      <trkpt lat="46.40706" lon="5.96994">
        <ele>1238</ele>
        <time>2011-02-02T15:34:48Z</time>
      </trkpt>
      <trkpt lat="46.40708" lon="5.97009">
        <ele>1238</ele>
        <time>2011-02-02T15:35:04Z</time>
      </trkpt>
      <trkpt lat="46.4071" lon="5.97022">
        <ele>1238</ele>
        <time>2011-02-02T15:35:14Z</time>
      </trkpt>
      <trkpt lat="46.40708" lon="5.97036">
        <ele>1238</ele>
        <time>2011-02-02T15:35:25Z</time>
      </trkpt>
      <trkpt lat="46.40712" lon="5.97048">
        <ele>1238</ele>
        <time>2011-02-02T15:35:36Z</time>
      </trkpt>
      <trkpt lat="46.40716" lon="5.9706">
        <ele>1238</ele>
        <time>2011-02-02T15:35:44Z</time>
      </trkpt>
      <trkpt lat="46.40722" lon="5.9707">
        <ele>1238</ele>
        <time>2011-02-02T15:35:54Z</time>
      </trkpt>
      <trkpt lat="46.40729" lon="5.9708">
        <ele>1238</ele>
        <time>2011-02-02T15:36:04Z</time>
      </trkpt>
      <trkpt lat="46.40733" lon="5.97091">
        <ele>1232</ele>
        <time>2011-02-02T15:36:17Z</time>
      </trkpt>
      <trkpt lat="46.4074" lon="5.97102">
        <ele>1232</ele>
        <time>2011-02-02T15:36:32Z</time>
      </trkpt>
      <trkpt lat="46.40749" lon="5.97111">
        <ele>1232</ele>
        <time>2011-02-02T15:36:47Z</time>
      </trkpt>
      <trkpt lat="46.40755" lon="5.97123">
        <ele>1232</ele>
        <time>2011-02-02T15:36:56Z</time>
      </trkpt>
      <trkpt lat="46.40759" lon="5.97136">
        <ele>1232</ele>
        <time>2011-02-02T15:37:02Z</time>
      </trkpt>
      <trkpt lat="46.40765" lon="5.97149">
        <ele>1232</ele>
        <time>2011-02-02T15:37:10Z</time>
      </trkpt>
      <trkpt lat="46.40772" lon="5.97159">
        <ele>1232</ele>
        <time>2011-02-02T15:37:19Z</time>
      </trkpt>
      <trkpt lat="46.4078" lon="5.97167">
        <ele>1232</ele>
        <time>2011-02-02T15:37:27Z</time>
      </trkpt>
      <trkpt lat="46.4078" lon="5.9718">
        <ele>1225</ele>
        <time>2011-02-02T15:37:56Z</time>
      </trkpt>
      <trkpt lat="46.40784" lon="5.97193">
        <ele>1225</ele>
        <time>2011-02-02T15:38:23Z</time>
      </trkpt>
      <trkpt lat="46.40788" lon="5.97205">
        <ele>1239</ele>
        <time>2011-02-02T15:38:35Z</time>
      </trkpt>
      <trkpt lat="46.40789" lon="5.97221">
        <ele>1239</ele>
        <time>2011-02-02T15:38:44Z</time>
      </trkpt>
      <trkpt lat="46.40789" lon="5.97234">
        <ele>1239</ele>
        <time>2011-02-02T15:38:55Z</time>
      </trkpt>
      <trkpt lat="46.40789" lon="5.97248">
        <ele>1239</ele>
        <time>2011-02-02T15:39:05Z</time>
      </trkpt>
      <trkpt lat="46.40786" lon="5.9726">
        <ele>1239</ele>
        <time>2011-02-02T15:39:14Z</time>
      </trkpt>
      <trkpt lat="46.40782" lon="5.97273">
        <ele>1239</ele>
        <time>2011-02-02T15:39:24Z</time>
      </trkpt>
      <trkpt lat="46.40782" lon="5.97286">
        <ele>1239</ele>
        <time>2011-02-02T15:39:32Z</time>
      </trkpt>
      <trkpt lat="46.40778" lon="5.97298">
        <ele>1246</ele>
        <time>2011-02-02T15:39:41Z</time>
      </trkpt>
      <trkpt lat="46.40774" lon="5.97311">
        <ele>1235</ele>
        <time>2011-02-02T15:40:09Z</time>
      </trkpt>
      <trkpt lat="46.40776" lon="5.97324">
        <ele>1235</ele>
        <time>2011-02-02T15:40:19Z</time>
      </trkpt>
      <trkpt lat="46.40776" lon="5.97337">
        <ele>1242</ele>
        <time>2011-02-02T15:40:29Z</time>
      </trkpt>
      <trkpt lat="46.40776" lon="5.97351">
        <ele>1242</ele>
        <time>2011-02-02T15:40:36Z</time>
      </trkpt>
      <trkpt lat="46.40773" lon="5.97364">
        <ele>1242</ele>
        <time>2011-02-02T15:40:44Z</time>
      </trkpt>
      <trkpt lat="46.40769" lon="5.97377">
        <ele>1235</ele>
        <time>2011-02-02T15:40:51Z</time>
      </trkpt>
      <trkpt lat="46.40763" lon="5.97388">
        <ele>1235</ele>
        <time>2011-02-02T15:40:59Z</time>
      </trkpt>
      <trkpt lat="46.40762" lon="5.97401">
        <ele>1235</ele>
        <time>2011-02-02T15:41:07Z</time>
      </trkpt>
      <trkpt lat="46.40761" lon="5.97415">
        <ele>1248</ele>
        <time>2011-02-02T15:41:16Z</time>
      </trkpt>
      <trkpt lat="46.40762" lon="5.9743">
        <ele>1248</ele>
        <time>2011-02-02T15:41:26Z</time>
      </trkpt>
      <trkpt lat="46.40761" lon="5.97443">
        <ele>1243</ele>
        <time>2011-02-02T15:41:40Z</time>
      </trkpt>
      <trkpt lat="46.40761" lon="5.97458">
        <ele>1243</ele>
        <time>2011-02-02T15:41:52Z</time>
      </trkpt>
      <trkpt lat="46.40762" lon="5.97472">
        <ele>1249</ele>
        <time>2011-02-02T15:42:00Z</time>
      </trkpt>
      <trkpt lat="46.40758" lon="5.97484">
        <ele>1249</ele>
        <time>2011-02-02T15:42:08Z</time>
      </trkpt>
      <trkpt lat="46.40755" lon="5.97496">
        <ele>1249</ele>
        <time>2011-02-02T15:42:17Z</time>
      </trkpt>
      <trkpt lat="46.40755" lon="5.9751">
        <ele>1240</ele>
        <time>2011-02-02T15:42:26Z</time>
      </trkpt>
      <trkpt lat="46.40753" lon="5.97523">
        <ele>1233</ele>
        <time>2011-02-02T15:42:46Z</time>
      </trkpt>
      <trkpt lat="46.40756" lon="5.97536">
        <ele>1239</ele>
        <time>2011-02-02T15:43:04Z</time>
      </trkpt>
      <trkpt lat="46.4076" lon="5.97549">
        <ele>1239</ele>
        <time>2011-02-02T15:44:59Z</time>
      </trkpt>
      <trkpt lat="46.4076" lon="5.97562">
        <ele>1239</ele>
        <time>2011-02-02T15:45:07Z</time>
      </trkpt>
      <trkpt lat="46.40754" lon="5.97572">
        <ele>1239</ele>
        <time>2011-02-02T15:45:21Z</time>
      </trkpt>
      <trkpt lat="46.40745" lon="5.97576">
        <ele>1239</ele>
        <time>2011-02-02T15:45:37Z</time>
      </trkpt>
      <trkpt lat="46.40737" lon="5.97583">
        <ele>1232</ele>
        <time>2011-02-02T15:45:51Z</time>
      </trkpt>
      <trkpt lat="46.4073" lon="5.97592">
        <ele>1232</ele>
        <time>2011-02-02T15:46:05Z</time>
      </trkpt>
      <trkpt lat="46.40721" lon="5.97593">
        <ele>1232</ele>
        <time>2011-02-02T15:46:17Z</time>
      </trkpt>
      <trkpt lat="46.40711" lon="5.97592">
        <ele>1241</ele>
        <time>2011-02-02T15:46:28Z</time>
      </trkpt>
      <trkpt lat="46.40702" lon="5.97588">
        <ele>1241</ele>
        <time>2011-02-02T15:46:41Z</time>
      </trkpt>
      <trkpt lat="46.40693" lon="5.97584">
        <ele>1241</ele>
        <time>2011-02-02T15:46:52Z</time>
      </trkpt>
      <trkpt lat="46.40685" lon="5.97576">
        <ele>1241</ele>
        <time>2011-02-02T15:47:07Z</time>
      </trkpt>
      <trkpt lat="46.40675" lon="5.97573">
        <ele>1241</ele>
        <time>2011-02-02T15:47:20Z</time>
      </trkpt>
      <trkpt lat="46.40668" lon="5.97582">
        <ele>1241</ele>
        <time>2011-02-02T15:47:36Z</time>
      </trkpt>
      <trkpt lat="46.40659" lon="5.97587">
        <ele>1241</ele>
        <time>2011-02-02T15:47:44Z</time>
      </trkpt>
      <trkpt lat="46.40655" lon="5.976">
        <ele>1254</ele>
        <time>2011-02-02T15:47:59Z</time>
      </trkpt>
      <trkpt lat="46.40648" lon="5.9761">
        <ele>1254</ele>
        <time>2011-02-02T15:48:15Z</time>
      </trkpt>
      <trkpt lat="46.40641" lon="5.97622">
        <ele>1254</ele>
        <time>2011-02-02T15:48:25Z</time>
      </trkpt>
      <trkpt lat="46.40635" lon="5.97632">
        <ele>1254</ele>
        <time>2011-02-02T15:48:38Z</time>
      </trkpt>
      <trkpt lat="46.40632" lon="5.97645">
        <ele>1248</ele>
        <time>2011-02-02T15:48:51Z</time>
      </trkpt>
      <trkpt lat="46.40625" lon="5.97653">
        <ele>1241</ele>
        <time>2011-02-02T15:49:01Z</time>
      </trkpt>
      <trkpt lat="46.40623" lon="5.97666">
        <ele>1241</ele>
        <time>2011-02-02T15:49:07Z</time>
      </trkpt>
      <trkpt lat="46.40618" lon="5.97678">
        <ele>1249</ele>
        <time>2011-02-02T15:49:18Z</time>
      </trkpt>
      <trkpt lat="46.40608" lon="5.97682">
        <ele>1249</ele>
        <time>2011-02-02T15:49:25Z</time>
      </trkpt>
      <trkpt lat="46.40602" lon="5.97692">
        <ele>1254</ele>
        <time>2011-02-02T15:49:32Z</time>
      </trkpt>
      <trkpt lat="46.40594" lon="5.97686">
        <ele>1254</ele>
        <time>2011-02-02T15:49:50Z</time>
      </trkpt>
      <trkpt lat="46.40586" lon="5.97692">
        <ele>1254</ele>
        <time>2011-02-02T15:50:12Z</time>
      </trkpt>
      <trkpt lat="46.40579" lon="5.977">
        <ele>1254</ele>
        <time>2011-02-02T15:50:21Z</time>
      </trkpt>
      <trkpt lat="46.40571" lon="5.97709">
        <ele>1246</ele>
        <time>2011-02-02T15:50:31Z</time>
      </trkpt>
      <trkpt lat="46.40562" lon="5.97714">
        <ele>1240</ele>
        <time>2011-02-02T15:50:49Z</time>
      </trkpt>
      <trkpt lat="46.40553" lon="5.97721">
        <ele>1240</ele>
        <time>2011-02-02T15:51:00Z</time>
      </trkpt>
      <trkpt lat="46.40548" lon="5.97734">
        <ele>1240</ele>
        <time>2011-02-02T15:51:11Z</time>
      </trkpt>
      <trkpt lat="46.40539" lon="5.97732">
        <ele>1240</ele>
        <time>2011-02-02T15:51:22Z</time>
      </trkpt>
      <trkpt lat="46.4053" lon="5.97735">
        <ele>1254</ele>
        <time>2011-02-02T15:51:35Z</time>
      </trkpt>
      <trkpt lat="46.40526" lon="5.97749">
        <ele>1266</ele>
        <time>2011-02-02T15:51:49Z</time>
      </trkpt>
      <trkpt lat="46.40523" lon="5.97761">
        <ele>1266</ele>
        <time>2011-02-02T15:52:01Z</time>
      </trkpt>
      <trkpt lat="46.40517" lon="5.97772">
        <ele>1257</ele>
        <time>2011-02-02T15:52:12Z</time>
      </trkpt>
      <trkpt lat="46.40515" lon="5.97785">
        <ele>1241</ele>
        <time>2011-02-02T15:52:27Z</time>
      </trkpt>
      <trkpt lat="46.4051" lon="5.97797">
        <ele>1241</ele>
        <time>2011-02-02T15:52:38Z</time>
      </trkpt>
      <trkpt lat="46.40503" lon="5.97806">
        <ele>1236</ele>
        <time>2011-02-02T15:52:47Z</time>
      </trkpt>
      <trkpt lat="46.40495" lon="5.97814">
        <ele>1236</ele>
        <time>2011-02-02T15:52:55Z</time>
      </trkpt>
      <trkpt lat="46.40486" lon="5.97822">
        <ele>1236</ele>
        <time>2011-02-02T15:53:03Z</time>
      </trkpt>
      <trkpt lat="46.40483" lon="5.97834">
        <ele>1236</ele>
        <time>2011-02-02T15:53:16Z</time>
      </trkpt>
      <trkpt lat="46.40479" lon="5.97846">
        <ele>1242</ele>
        <time>2011-02-02T15:53:51Z</time>
      </trkpt>
      <trkpt lat="46.40485" lon="5.97857">
        <ele>1236</ele>
        <time>2011-02-02T15:54:28Z</time>
      </trkpt>
      <trkpt lat="46.40492" lon="5.97867">
        <ele>1242</ele>
        <time>2011-02-02T15:54:41Z</time>
      </trkpt>
      <trkpt lat="46.40497" lon="5.9788">
        <ele>1242</ele>
        <time>2011-02-02T15:54:53Z</time>
      </trkpt>
      <trkpt lat="46.40501" lon="5.97893">
        <ele>1247</ele>
        <time>2011-02-02T15:55:03Z</time>
      </trkpt>
      <trkpt lat="46.40508" lon="5.97904">
        <ele>1247</ele>
        <time>2011-02-02T15:55:13Z</time>
      </trkpt>
      <trkpt lat="46.40513" lon="5.97916">
        <ele>1247</ele>
        <time>2011-02-02T15:55:22Z</time>
      </trkpt>
      <trkpt lat="46.40518" lon="5.97929">
        <ele>1247</ele>
        <time>2011-02-02T15:55:31Z</time>
      </trkpt>
      <trkpt lat="46.40521" lon="5.97941">
        <ele>1247</ele>
        <time>2011-02-02T15:55:40Z</time>
      </trkpt>
      <trkpt lat="46.40525" lon="5.97954">
        <ele>1247</ele>
        <time>2011-02-02T15:55:49Z</time>
      </trkpt>
      <trkpt lat="46.40529" lon="5.97966">
        <ele>1247</ele>
        <time>2011-02-02T15:55:58Z</time>
      </trkpt>
      <trkpt lat="46.40535" lon="5.97979">
        <ele>1247</ele>
        <time>2011-02-02T15:56:07Z</time>
      </trkpt>
      <trkpt lat="46.40539" lon="5.97991">
        <ele>1247</ele>
        <time>2011-02-02T15:56:16Z</time>
      </trkpt>
      <trkpt lat="46.40544" lon="5.98004">
        <ele>1240</ele>
        <time>2011-02-02T15:56:24Z</time>
      </trkpt>
      <trkpt lat="46.40548" lon="5.98016">
        <ele>1240</ele>
        <time>2011-02-02T15:56:31Z</time>
      </trkpt>
      <trkpt lat="46.40553" lon="5.98027">
        <ele>1234</ele>
        <time>2011-02-02T15:56:38Z</time>
      </trkpt>
      <trkpt lat="46.40558" lon="5.9804">
        <ele>1234</ele>
        <time>2011-02-02T15:56:47Z</time>
      </trkpt>
      <trkpt lat="46.40562" lon="5.98053">
        <ele>1234</ele>
        <time>2011-02-02T15:56:56Z</time>
      </trkpt>
      <trkpt lat="46.40567" lon="5.98064">
        <ele>1234</ele>
        <time>2011-02-02T15:57:05Z</time>
      </trkpt>
      <trkpt lat="46.40572" lon="5.98077">
        <ele>1234</ele>
        <time>2011-02-02T15:57:14Z</time>
      </trkpt>
      <trkpt lat="46.40578" lon="5.98088">
        <ele>1234</ele>
        <time>2011-02-02T15:57:22Z</time>
      </trkpt>
      <trkpt lat="46.40583" lon="5.98101">
        <ele>1234</ele>
        <time>2011-02-02T15:57:31Z</time>
      </trkpt>
      <trkpt lat="46.40588" lon="5.98113">
        <ele>1234</ele>
        <time>2011-02-02T15:57:40Z</time>
      </trkpt>
      <trkpt lat="46.40592" lon="5.98124">
        <ele>1234</ele>
        <time>2011-02-02T15:57:48Z</time>
      </trkpt>
      <trkpt lat="46.40597" lon="5.98138">
        <ele>1234</ele>
        <time>2011-02-02T15:57:57Z</time>
      </trkpt>
      <trkpt lat="46.40602" lon="5.9815">
        <ele>1234</ele>
        <time>2011-02-02T15:58:07Z</time>
      </trkpt>
      <trkpt lat="46.40607" lon="5.98161">
        <ele>1227</ele>
        <time>2011-02-02T15:59:03Z</time>
      </trkpt>
      <trkpt lat="46.40612" lon="5.98173">
        <ele>1227</ele>
        <time>2011-02-02T15:59:23Z</time>
      </trkpt>
      <trkpt lat="46.40616" lon="5.98185">
        <ele>1227</ele>
        <time>2011-02-02T15:59:36Z</time>
      </trkpt>
      <trkpt lat="46.40623" lon="5.98195">
        <ele>1227</ele>
        <time>2011-02-02T15:59:47Z</time>
      </trkpt>
      <trkpt lat="46.40629" lon="5.98206">
        <ele>1235</ele>
        <time>2011-02-02T15:59:57Z</time>
      </trkpt>
      <trkpt lat="46.40634" lon="5.98218">
        <ele>1235</ele>
        <time>2011-02-02T16:00:07Z</time>
      </trkpt>
      <trkpt lat="46.40641" lon="5.9823">
        <ele>1249</ele>
        <time>2011-02-02T16:00:19Z</time>
      </trkpt>
      <trkpt lat="46.40648" lon="5.98239">
        <ele>1249</ele>
        <time>2011-02-02T16:00:29Z</time>
      </trkpt>
      <trkpt lat="46.40654" lon="5.98251">
        <ele>1249</ele>
        <time>2011-02-02T16:00:38Z</time>
      </trkpt>
      <trkpt lat="46.4066" lon="5.98261">
        <ele>1249</ele>
        <time>2011-02-02T16:00:47Z</time>
      </trkpt>
      <trkpt lat="46.40667" lon="5.98271">
        <ele>1249</ele>
        <time>2011-02-02T16:00:57Z</time>
      </trkpt>
      <trkpt lat="46.40674" lon="5.9828">
        <ele>1249</ele>
        <time>2011-02-02T16:01:06Z</time>
      </trkpt>
      <trkpt lat="46.4068" lon="5.9829">
        <ele>1249</ele>
        <time>2011-02-02T16:01:15Z</time>
      </trkpt>
      <trkpt lat="46.40687" lon="5.98299">
        <ele>1249</ele>
        <time>2011-02-02T16:01:24Z</time>
      </trkpt>
      <trkpt lat="46.40695" lon="5.98308">
        <ele>1249</ele>
        <time>2011-02-02T16:01:32Z</time>
      </trkpt>
      <trkpt lat="46.40703" lon="5.98314">
        <ele>1249</ele>
        <time>2011-02-02T16:01:40Z</time>
      </trkpt>
      <trkpt lat="46.40712" lon="5.9832">
        <ele>1249</ele>
        <time>2011-02-02T16:01:48Z</time>
      </trkpt>
      <trkpt lat="46.4072" lon="5.98328">
        <ele>1249</ele>
        <time>2011-02-02T16:01:56Z</time>
      </trkpt>
      <trkpt lat="46.40727" lon="5.98337">
        <ele>1249</ele>
        <time>2011-02-02T16:02:04Z</time>
      </trkpt>
      <trkpt lat="46.40735" lon="5.98345">
        <ele>1249</ele>
        <time>2011-02-02T16:02:12Z</time>
      </trkpt>
      <trkpt lat="46.40743" lon="5.98354">
        <ele>1249</ele>
        <time>2011-02-02T16:02:20Z</time>
      </trkpt>
      <trkpt lat="46.40751" lon="5.98363">
        <ele>1249</ele>
        <time>2011-02-02T16:02:28Z</time>
      </trkpt>
      <trkpt lat="46.40758" lon="5.98371">
        <ele>1249</ele>
        <time>2011-02-02T16:02:36Z</time>
      </trkpt>
      <trkpt lat="46.40765" lon="5.98381">
        <ele>1249</ele>
        <time>2011-02-02T16:02:44Z</time>
      </trkpt>
      <trkpt lat="46.40772" lon="5.98392">
        <ele>1249</ele>
        <time>2011-02-02T16:02:52Z</time>
      </trkpt>
      <trkpt lat="46.40778" lon="5.98402">
        <ele>1249</ele>
        <time>2011-02-02T16:02:59Z</time>
      </trkpt>
      <trkpt lat="46.40785" lon="5.98413">
        <ele>1249</ele>
        <time>2011-02-02T16:03:07Z</time>
      </trkpt>
      <trkpt lat="46.40791" lon="5.98424">
        <ele>1249</ele>
        <time>2011-02-02T16:03:15Z</time>
      </trkpt>
      <trkpt lat="46.40797" lon="5.98435">
        <ele>1249</ele>
        <time>2011-02-02T16:03:24Z</time>
      </trkpt>
      <trkpt lat="46.40805" lon="5.98445">
        <ele>1249</ele>
        <time>2011-02-02T16:03:33Z</time>
      </trkpt>
      <trkpt lat="46.40815" lon="5.98451">
        <ele>1249</ele>
        <time>2011-02-02T16:03:42Z</time>
      </trkpt>
      <trkpt lat="46.40823" lon="5.98458">
        <ele>1249</ele>
        <time>2011-02-02T16:03:50Z</time>
      </trkpt>
      <trkpt lat="46.40832" lon="5.98461">
        <ele>1249</ele>
        <time>2011-02-02T16:03:57Z</time>
      </trkpt>
      <trkpt lat="46.40841" lon="5.98466">
        <ele>1249</ele>
        <time>2011-02-02T16:04:05Z</time>
      </trkpt>
      <trkpt lat="46.40849" lon="5.98474">
        <ele>1249</ele>
        <time>2011-02-02T16:04:13Z</time>
      </trkpt>
      <trkpt lat="46.40856" lon="5.98485">
        <ele>1249</ele>
        <time>2011-02-02T16:04:22Z</time>
      </trkpt>
      <trkpt lat="46.40863" lon="5.98495">
        <ele>1249</ele>
        <time>2011-02-02T16:04:30Z</time>
      </trkpt>
      <trkpt lat="46.40869" lon="5.98504">
        <ele>1249</ele>
        <time>2011-02-02T16:04:38Z</time>
      </trkpt>
      <trkpt lat="46.40876" lon="5.98514">
        <ele>1249</ele>
        <time>2011-02-02T16:04:46Z</time>
      </trkpt>
      <trkpt lat="46.40883" lon="5.98523">
        <ele>1242</ele>
        <time>2011-02-02T16:04:53Z</time>
      </trkpt>
      <trkpt lat="46.4089" lon="5.98533">
        <ele>1242</ele>
        <time>2011-02-02T16:05:02Z</time>
      </trkpt>
      <trkpt lat="46.40897" lon="5.98544">
        <ele>1242</ele>
        <time>2011-02-02T16:05:11Z</time>
      </trkpt>
      <trkpt lat="46.40904" lon="5.98554">
        <ele>1242</ele>
        <time>2011-02-02T16:05:19Z</time>
      </trkpt>
      <trkpt lat="46.40911" lon="5.98563">
        <ele>1242</ele>
        <time>2011-02-02T16:05:27Z</time>
      </trkpt>
      <trkpt lat="46.40918" lon="5.98573">
        <ele>1242</ele>
        <time>2011-02-02T16:05:35Z</time>
      </trkpt>
      <trkpt lat="46.40925" lon="5.98583">
        <ele>1242</ele>
        <time>2011-02-02T16:05:43Z</time>
      </trkpt>
      <trkpt lat="46.40931" lon="5.98592">
        <ele>1242</ele>
        <time>2011-02-02T16:05:50Z</time>
      </trkpt>
      <trkpt lat="46.4094" lon="5.98599">
        <ele>1242</ele>
        <time>2011-02-02T16:06:01Z</time>
      </trkpt>
      <trkpt lat="46.40948" lon="5.98607">
        <ele>1236</ele>
        <time>2011-02-02T16:06:11Z</time>
      </trkpt>
      <trkpt lat="46.40955" lon="5.98616">
        <ele>1236</ele>
        <time>2011-02-02T16:06:21Z</time>
      </trkpt>
      <trkpt lat="46.40961" lon="5.98627">
        <ele>1236</ele>
        <time>2011-02-02T16:06:30Z</time>
      </trkpt>
      <trkpt lat="46.40968" lon="5.98639">
        <ele>1236</ele>
        <time>2011-02-02T16:06:39Z</time>
      </trkpt>
      <trkpt lat="46.40974" lon="5.98648">
        <ele>1226</ele>
        <time>2011-02-02T16:06:52Z</time>
      </trkpt>
      <trkpt lat="46.40981" lon="5.98658">
        <ele>1226</ele>
        <time>2011-02-02T16:07:02Z</time>
      </trkpt>
      <trkpt lat="46.40986" lon="5.9867">
        <ele>1226</ele>
        <time>2011-02-02T16:07:12Z</time>
      </trkpt>
      <trkpt lat="46.40991" lon="5.98682">
        <ele>1219</ele>
        <time>2011-02-02T16:07:22Z</time>
      </trkpt>
      <trkpt lat="46.40997" lon="5.98695">
        <ele>1219</ele>
        <time>2011-02-02T16:07:31Z</time>
      </trkpt>
      <trkpt lat="46.41002" lon="5.98707">
        <ele>1219</ele>
        <time>2011-02-02T16:07:40Z</time>
      </trkpt>
      <trkpt lat="46.41007" lon="5.98718">
        <ele>1219</ele>
        <time>2011-02-02T16:07:48Z</time>
      </trkpt>
      <trkpt lat="46.41014" lon="5.9873">
        <ele>1214</ele>
        <time>2011-02-02T16:07:57Z</time>
      </trkpt>
      <trkpt lat="46.4102" lon="5.98739">
        <ele>1214</ele>
        <time>2011-02-02T16:08:05Z</time>
      </trkpt>
      <trkpt lat="46.41027" lon="5.98748">
        <ele>1214</ele>
        <time>2011-02-02T16:08:14Z</time>
      </trkpt>
      <trkpt lat="46.41033" lon="5.98759">
        <ele>1214</ele>
        <time>2011-02-02T16:08:23Z</time>
      </trkpt>
      <trkpt lat="46.41039" lon="5.98769">
        <ele>1204</ele>
        <time>2011-02-02T16:08:42Z</time>
      </trkpt>
      <trkpt lat="46.41041" lon="5.98783">
        <ele>1204</ele>
        <time>2011-02-02T16:09:01Z</time>
      </trkpt>
      <trkpt lat="46.41041" lon="5.98796">
        <ele>1196</ele>
        <time>2011-02-02T16:09:12Z</time>
      </trkpt>
      <trkpt lat="46.41042" lon="5.9881">
        <ele>1196</ele>
        <time>2011-02-02T16:09:22Z</time>
      </trkpt>
      <trkpt lat="46.41045" lon="5.98822">
        <ele>1196</ele>
        <time>2011-02-02T16:09:32Z</time>
      </trkpt>
      <trkpt lat="46.41048" lon="5.98836">
        <ele>1196</ele>
        <time>2011-02-02T16:09:42Z</time>
      </trkpt>
      <trkpt lat="46.41051" lon="5.98848">
        <ele>1196</ele>
        <time>2011-02-02T16:09:51Z</time>
      </trkpt>
      <trkpt lat="46.41053" lon="5.98861">
        <ele>1196</ele>
        <time>2011-02-02T16:09:59Z</time>
      </trkpt>
      <trkpt lat="46.41058" lon="5.98873">
        <ele>1196</ele>
        <time>2011-02-02T16:10:07Z</time>
      </trkpt>
      <trkpt lat="46.41063" lon="5.98884">
        <ele>1196</ele>
        <time>2011-02-02T16:10:16Z</time>
      </trkpt>
      <trkpt lat="46.41069" lon="5.98894">
        <ele>1196</ele>
        <time>2011-02-02T16:10:25Z</time>
      </trkpt>
      <trkpt lat="46.41075" lon="5.98905">
        <ele>1196</ele>
        <time>2011-02-02T16:10:34Z</time>
      </trkpt>
      <trkpt lat="46.4108" lon="5.98917">
        <ele>1196</ele>
        <time>2011-02-02T16:10:44Z</time>
      </trkpt>
      <trkpt lat="46.41086" lon="5.98928">
        <ele>1196</ele>
        <time>2011-02-02T16:10:55Z</time>
      </trkpt>
      <trkpt lat="46.41092" lon="5.98938">
        <ele>1191</ele>
        <time>2011-02-02T16:11:04Z</time>
      </trkpt>
      <trkpt lat="46.41101" lon="5.9894">
        <ele>1191</ele>
        <time>2011-02-02T16:11:12Z</time>
      </trkpt>
      <trkpt lat="46.4111" lon="5.98946">
        <ele>1191</ele>
        <time>2011-02-02T16:11:21Z</time>
      </trkpt>
      <trkpt lat="46.41119" lon="5.98952">
        <ele>1191</ele>
        <time>2011-02-02T16:11:30Z</time>
      </trkpt>
      <trkpt lat="46.41128" lon="5.98954">
        <ele>1199</ele>
        <time>2011-02-02T16:11:39Z</time>
      </trkpt>
      <trkpt lat="46.41136" lon="5.98963">
        <ele>1206</ele>
        <time>2011-02-02T16:11:49Z</time>
      </trkpt>
      <trkpt lat="46.41144" lon="5.98972">
        <ele>1201</ele>
        <time>2011-02-02T16:11:58Z</time>
      </trkpt>
      <trkpt lat="46.41151" lon="5.98982">
        <ele>1201</ele>
        <time>2011-02-02T16:12:06Z</time>
      </trkpt>
      <trkpt lat="46.41158" lon="5.98992">
        <ele>1201</ele>
        <time>2011-02-02T16:12:12Z</time>
      </trkpt>
      <trkpt lat="46.41166" lon="5.99">
        <ele>1201</ele>
        <time>2011-02-02T16:12:21Z</time>
      </trkpt>
      <trkpt lat="46.41174" lon="5.99008">
        <ele>1191</ele>
        <time>2011-02-02T16:12:33Z</time>
      </trkpt>
      <trkpt lat="46.41183" lon="5.99015">
        <ele>1191</ele>
        <time>2011-02-02T16:12:51Z</time>
      </trkpt>
      <trkpt lat="46.41191" lon="5.99022">
        <ele>1196</ele>
        <time>2011-02-02T16:13:01Z</time>
      </trkpt>
      <trkpt lat="46.41199" lon="5.99031">
        <ele>1196</ele>
        <time>2011-02-02T16:13:10Z</time>
      </trkpt>
      <trkpt lat="46.41206" lon="5.99042">
        <ele>1196</ele>
        <time>2011-02-02T16:13:20Z</time>
      </trkpt>
      <trkpt lat="46.41208" lon="5.99055">
        <ele>1196</ele>
        <time>2011-02-02T16:13:30Z</time>
      </trkpt>
      <trkpt lat="46.41215" lon="5.99064">
        <ele>1196</ele>
        <time>2011-02-02T16:13:38Z</time>
      </trkpt>
      <trkpt lat="46.41224" lon="5.99072">
        <ele>1196</ele>
        <time>2011-02-02T16:13:47Z</time>
      </trkpt>
      <trkpt lat="46.41232" lon="5.99079">
        <ele>1196</ele>
        <time>2011-02-02T16:13:55Z</time>
      </trkpt>
      <trkpt lat="46.41241" lon="5.99084">
        <ele>1196</ele>
        <time>2011-02-02T16:14:05Z</time>
      </trkpt>
    </trkseg>
  </trk>
</gpx>